<?xml version="1.0" encoding="UTF-8" standalone="no" ?><gpx xmlns="http://www.topografix.com/GPX/1/1" xmlns:gpxx="http://www.garmin.com/xmlschemas/GpxExtensions/v3" xmlns:wptx1="http://www.garmin.com/xmlschemas/WaypointExtension/v1" xmlns:gpxtpx="http://www.garmin.com/xmlschemas/TrackPointExtension/v1" creator="GuideVTT.com" version="1.1" xmlns:xsi="http://www.w3.org/2001/XMLSchema-instance" xsi:schemaLocation="http://www.topografix.com/GPX/1/1 http://www.topografix.com/GPX/1/1/gpx.xsd http://www.garmin.com/xmlschemas/GpxExtensions/v3 http://www8.garmin.com/xmlschemas/GpxExtensionsv3.xsd http://www.garmin.com/xmlschemas/WaypointExtension/v1 http://www8.garmin.com/xmlschemas/WaypointExtensionv1.xsd http://www.garmin.com/xmlschemas/TrackPointExtension/v1 http://www.garmin.com/xmlschemas/TrackPointExtensionv1.xsd">
<metadata><link href="http://www.garmin.com"><text>Garmin International</text></link><time>2013-06-22T15:13:50Z</time></metadata>
<trk><name>090516_versoix-lachiesaz.gpx</name><extensions><gpxx:TrackExtension><gpxx:DisplayColor>Cyan</gpxx:DisplayColor></gpxx:TrackExtension></extensions><trkseg>
<trkpt lat="46.28269572" lon="6.15995485"><ele>401.00708</ele><time>2009-05-17T09:14:17Z</time></trkpt>
<trkpt lat="46.28269027" lon="6.15995687"><ele>400.045898</ele><time>2009-05-17T09:14:20Z</time></trkpt>
<trkpt lat="46.28274492" lon="6.15993063"><ele>400.045898</ele><time>2009-05-17T09:14:40Z</time></trkpt>
<trkpt lat="46.28272254" lon="6.15990406"><ele>400.045898</ele><time>2009-05-17T09:15:03Z</time></trkpt>
<trkpt lat="46.28271667" lon="6.15978747"><ele>401.00708</ele><time>2009-05-17T09:15:08Z</time></trkpt>
<trkpt lat="46.28286076" lon="6.15925882"><ele>402.449097</ele><time>2009-05-17T09:15:23Z</time></trkpt>
<trkpt lat="46.28301926" lon="6.15870276"><ele>405.333008</ele><time>2009-05-17T09:15:38Z</time></trkpt>
<trkpt lat="46.28318463" lon="6.15808519"><ele>407.255615</ele><time>2009-05-17T09:15:56Z</time></trkpt>
<trkpt lat="46.28332612" lon="6.15768939"><ele>408.697632</ele><time>2009-05-17T09:16:08Z</time></trkpt>
<trkpt lat="46.28394018" lon="6.15724515"><ele>410.620239</ele><time>2009-05-17T09:16:27Z</time></trkpt>
<trkpt lat="46.28465742" lon="6.15677283"><ele>413.504272</ele><time>2009-05-17T09:16:48Z</time></trkpt>
<trkpt lat="46.28472607" lon="6.15672497"><ele>414.465454</ele><time>2009-05-17T09:16:50Z</time></trkpt>
<trkpt lat="46.28542855" lon="6.15629305"><ele>415.907471</ele><time>2009-05-17T09:17:10Z</time></trkpt>
<trkpt lat="46.28566082" lon="6.15626095"><ele>415.907471</ele><time>2009-05-17T09:17:15Z</time></trkpt>
<trkpt lat="46.28587766" lon="6.15631937"><ele>415.907471</ele><time>2009-05-17T09:17:19Z</time></trkpt>
<trkpt lat="46.28628745" lon="6.15614545"><ele>416.388184</ele><time>2009-05-17T09:17:27Z</time></trkpt>
<trkpt lat="46.28649507" lon="6.15584638"><ele>417.349609</ele><time>2009-05-17T09:17:33Z</time></trkpt>
<trkpt lat="46.28688784" lon="6.15494792"><ele>420.714111</ele><time>2009-05-17T09:17:51Z</time></trkpt>
<trkpt lat="46.28698499" lon="6.15465179"><ele>422.636719</ele><time>2009-05-17T09:17:57Z</time></trkpt>
<trkpt lat="46.28695825" lon="6.15395819"><ele>423.598022</ele><time>2009-05-17T09:18:10Z</time></trkpt>
<trkpt lat="46.28691609" lon="6.15381016"><ele>423.598022</ele><time>2009-05-17T09:18:12Z</time></trkpt>
<trkpt lat="46.28691207" lon="6.15334975"><ele>423.117432</ele><time>2009-05-17T09:18:17Z</time></trkpt>
<trkpt lat="46.28735723" lon="6.15179222"><ele>420.714111</ele><time>2009-05-17T09:18:35Z</time></trkpt>
<trkpt lat="46.28747315" lon="6.15144060"><ele>421.194824</ele><time>2009-05-17T09:18:40Z</time></trkpt>
<trkpt lat="46.28772528" lon="6.15140682"><ele>420.714111</ele><time>2009-05-17T09:18:47Z</time></trkpt>
<trkpt lat="46.28864134" lon="6.15203848"><ele>419.752808</ele><time>2009-05-17T09:19:05Z</time></trkpt>
<trkpt lat="46.28989133" lon="6.15269403"><ele>419.752808</ele><time>2009-05-17T09:19:28Z</time></trkpt>
<trkpt lat="46.29129128" lon="6.15333323"><ele>418.791504</ele><time>2009-05-17T09:19:53Z</time></trkpt>
<trkpt lat="46.29186795" lon="6.15351152"><ele>419.272217</ele><time>2009-05-17T09:20:03Z</time></trkpt>
<trkpt lat="46.29222795" lon="6.15354647"><ele>419.272217</ele><time>2009-05-17T09:20:11Z</time></trkpt>
<trkpt lat="46.29274604" lon="6.15250150"><ele>421.194824</ele><time>2009-05-17T09:20:28Z</time></trkpt>
<trkpt lat="46.29334669" lon="6.15135963"><ele>422.636719</ele><time>2009-05-17T09:20:47Z</time></trkpt>
<trkpt lat="46.29395580" lon="6.15023562"><ele>423.598022</ele><time>2009-05-17T09:21:05Z</time></trkpt>
<trkpt lat="46.29432318" lon="6.14956607"><ele>424.559448</ele><time>2009-05-17T09:21:16Z</time></trkpt>
<trkpt lat="46.29510655" lon="6.14813268"><ele>424.559448</ele><time>2009-05-17T09:21:38Z</time></trkpt>
<trkpt lat="46.29602563" lon="6.14643878"><ele>425.520752</ele><time>2009-05-17T09:22:03Z</time></trkpt>
<trkpt lat="46.29634322" lon="6.14585591"><ele>425.040161</ele><time>2009-05-17T09:22:12Z</time></trkpt>
<trkpt lat="46.29652544" lon="6.14555843"><ele>425.520752</ele><time>2009-05-17T09:22:16Z</time></trkpt>
<trkpt lat="46.29713992" lon="6.14439787"><ele>429.365967</ele><time>2009-05-17T09:22:34Z</time></trkpt>
<trkpt lat="46.29730378" lon="6.14410367"><ele>430.327271</ele><time>2009-05-17T09:22:39Z</time></trkpt>
<trkpt lat="46.29779538" lon="6.14321100"><ele>433.691895</ele><time>2009-05-17T09:22:55Z</time></trkpt>
<trkpt lat="46.29831238" lon="6.14228689"><ele>436.095215</ele><time>2009-05-17T09:23:13Z</time></trkpt>
<trkpt lat="46.29888059" lon="6.14128802"><ele>438.979126</ele><time>2009-05-17T09:23:32Z</time></trkpt>
<trkpt lat="46.29973948" lon="6.13972404"><ele>440.421265</ele><time>2009-05-17T09:23:59Z</time></trkpt>
<trkpt lat="46.30060466" lon="6.13817557"><ele>440.421265</ele><time>2009-05-17T09:24:24Z</time></trkpt>
<trkpt lat="46.30116893" lon="6.13713093"><ele>441.863159</ele><time>2009-05-17T09:24:40Z</time></trkpt>
<trkpt lat="46.30175927" lon="6.13605285"><ele>442.343872</ele><time>2009-05-17T09:24:57Z</time></trkpt>
<trkpt lat="46.30243476" lon="6.13479992"><ele>445.227661</ele><time>2009-05-17T09:25:18Z</time></trkpt>
<trkpt lat="46.30308780" lon="6.13361623"><ele>447.630981</ele><time>2009-05-17T09:25:39Z</time></trkpt>
<trkpt lat="46.30373857" lon="6.13243824"><ele>450.995605</ele><time>2009-05-17T09:26:00Z</time></trkpt>
<trkpt lat="46.30433628" lon="6.13133736"><ele>453.879639</ele><time>2009-05-17T09:26:20Z</time></trkpt>
<trkpt lat="46.30486652" lon="6.13036087"><ele>456.76355</ele><time>2009-05-17T09:26:38Z</time></trkpt>
<trkpt lat="46.30572299" lon="6.12881072"><ele>459.16687</ele><time>2009-05-17T09:27:06Z</time></trkpt>
<trkpt lat="46.30666553" lon="6.12710718"><ele>461.57019</ele><time>2009-05-17T09:27:34Z</time></trkpt>
<trkpt lat="46.30737556" lon="6.12580069"><ele>462.050781</ele><time>2009-05-17T09:27:54Z</time></trkpt>
<trkpt lat="46.30763909" lon="6.12574646"><ele>460.608765</ele><time>2009-05-17T09:27:59Z</time></trkpt>
<trkpt lat="46.30899193" lon="6.12691079"><ele>463.012085</ele><time>2009-05-17T09:28:25Z</time></trkpt>
<trkpt lat="46.31008233" lon="6.12783289"><ele>464.454102</ele><time>2009-05-17T09:28:47Z</time></trkpt>
<trkpt lat="46.31100702" lon="6.12859027"><ele>465.896118</ele><time>2009-05-17T09:29:06Z</time></trkpt>
<trkpt lat="46.31127105" lon="6.12864015"><ele>466.376709</ele><time>2009-05-17T09:29:11Z</time></trkpt>
<trkpt lat="46.31152335" lon="6.12879504"><ele>465.896118</ele><time>2009-05-17T09:29:16Z</time></trkpt>
<trkpt lat="46.31258408" lon="6.12952896"><ele>467.818726</ele><time>2009-05-17T09:29:37Z</time></trkpt>
<trkpt lat="46.31351757" lon="6.13025928"><ele>467.818726</ele><time>2009-05-17T09:29:55Z</time></trkpt>
<trkpt lat="46.31435618" lon="6.13119185"><ele>467.818726</ele><time>2009-05-17T09:30:13Z</time></trkpt>
<trkpt lat="46.31443614" lon="6.13132177"><ele>468.780029</ele><time>2009-05-17T09:30:15Z</time></trkpt>
<trkpt lat="46.31494006" lon="6.13216524"><ele>469.260742</ele><time>2009-05-17T09:30:28Z</time></trkpt>
<trkpt lat="46.31516780" lon="6.13239256"><ele>469.260742</ele><time>2009-05-17T09:30:33Z</time></trkpt>
<trkpt lat="46.31592577" lon="6.13334726"><ele>470.221924</ele><time>2009-05-17T09:30:49Z</time></trkpt>
<trkpt lat="46.31629257" lon="6.13377130"><ele>470.702637</ele><time>2009-05-17T09:30:56Z</time></trkpt>
<trkpt lat="46.31638477" lon="6.13392485"><ele>470.702637</ele><time>2009-05-17T09:30:58Z</time></trkpt>
<trkpt lat="46.31667780" lon="6.13420682"><ele>470.702637</ele><time>2009-05-17T09:31:03Z</time></trkpt>
<trkpt lat="46.31696538" lon="6.13451368"><ele>471.18335</ele><time>2009-05-17T09:31:08Z</time></trkpt>
<trkpt lat="46.31802552" lon="6.13494409"><ele>473.58667</ele><time>2009-05-17T09:31:24Z</time></trkpt>
<trkpt lat="46.31909179" lon="6.13519354"><ele>474.547974</ele><time>2009-05-17T09:31:41Z</time></trkpt>
<trkpt lat="46.32001396" lon="6.13539487"><ele>475.028687</ele><time>2009-05-17T09:31:56Z</time></trkpt>
<trkpt lat="46.32067010" lon="6.13559235"><ele>476.470581</ele><time>2009-05-17T09:32:06Z</time></trkpt>
<trkpt lat="46.32150879" lon="6.13646122"><ele>478.873901</ele><time>2009-05-17T09:32:22Z</time></trkpt>
<trkpt lat="46.32284973" lon="6.13789938"><ele>480.315918</ele><time>2009-05-17T09:32:49Z</time></trkpt>
<trkpt lat="46.32319992" lon="6.13827045"><ele>481.277222</ele><time>2009-05-17T09:32:56Z</time></trkpt>
<trkpt lat="46.32412244" lon="6.13953377"><ele>482.238525</ele><time>2009-05-17T09:33:16Z</time></trkpt>
<trkpt lat="46.32426518" lon="6.13975497"><ele>481.757813</ele><time>2009-05-17T09:33:19Z</time></trkpt>
<trkpt lat="46.32449904" lon="6.13997927"><ele>481.277222</ele><time>2009-05-17T09:33:23Z</time></trkpt>
<trkpt lat="46.32597383" lon="6.14087320"><ele>480.796631</ele><time>2009-05-17T09:33:44Z</time></trkpt>
<trkpt lat="46.32718158" lon="6.14160310"><ele>482.238525</ele><time>2009-05-17T09:34:01Z</time></trkpt>
<trkpt lat="46.32831884" lon="6.14266659"><ele>482.238525</ele><time>2009-05-17T09:34:19Z</time></trkpt>
<trkpt lat="46.32970344" lon="6.14340889"><ele>479.835083</ele><time>2009-05-17T09:34:35Z</time></trkpt>
<trkpt lat="46.33105938" lon="6.14416452"><ele>477.912476</ele><time>2009-05-17T09:34:52Z</time></trkpt>
<trkpt lat="46.33141058" lon="6.14457238"><ele>479.354492</ele><time>2009-05-17T09:34:58Z</time></trkpt>
<trkpt lat="46.33198810" lon="6.14558416"><ele>482.238525</ele><time>2009-05-17T09:35:12Z</time></trkpt>
<trkpt lat="46.33249160" lon="6.14603855"><ele>479.835083</ele><time>2009-05-17T09:35:20Z</time></trkpt>
<trkpt lat="46.33287868" lon="6.14639260"><ele>477.912476</ele><time>2009-05-17T09:35:25Z</time></trkpt>
<trkpt lat="46.33348284" lon="6.14737798"><ele>476.951294</ele><time>2009-05-17T09:35:35Z</time></trkpt>
<trkpt lat="46.33441575" lon="6.14901538"><ele>477.912476</ele><time>2009-05-17T09:35:53Z</time></trkpt>
<trkpt lat="46.33567639" lon="6.15092042"><ele>474.547974</ele><time>2009-05-17T09:36:15Z</time></trkpt>
<trkpt lat="46.33666109" lon="6.15214166"><ele>474.547974</ele><time>2009-05-17T09:36:31Z</time></trkpt>
<trkpt lat="46.33782090" lon="6.15363984"><ele>475.509277</ele><time>2009-05-17T09:36:51Z</time></trkpt>
<trkpt lat="46.33793640" lon="6.15378862"><ele>475.509277</ele><time>2009-05-17T09:36:53Z</time></trkpt>
<trkpt lat="46.33819926" lon="6.15420143"><ele>475.509277</ele><time>2009-05-17T09:36:58Z</time></trkpt>
<trkpt lat="46.33932813" lon="6.15557112"><ele>473.58667</ele><time>2009-05-17T09:37:16Z</time></trkpt>
<trkpt lat="46.34070469" lon="6.15714088"><ele>473.58667</ele><time>2009-05-17T09:37:37Z</time></trkpt>
<trkpt lat="46.34222936" lon="6.15882439"><ele>473.58667</ele><time>2009-05-17T09:38:01Z</time></trkpt>
<trkpt lat="46.34257503" lon="6.15906763"><ele>474.067261</ele><time>2009-05-17T09:38:06Z</time></trkpt>
<trkpt lat="46.34269573" lon="6.15918824"><ele>474.067261</ele><time>2009-05-17T09:38:08Z</time></trkpt>
<trkpt lat="46.34344163" lon="6.15951145"><ele>474.547974</ele><time>2009-05-17T09:38:18Z</time></trkpt>
<trkpt lat="46.34384874" lon="6.15968747"><ele>474.547974</ele><time>2009-05-17T09:38:24Z</time></trkpt>
<trkpt lat="46.34394178" lon="6.16000162"><ele>475.989868</ele><time>2009-05-17T09:38:28Z</time></trkpt>
<trkpt lat="46.34370843" lon="6.16117115"><ele>478.873901</ele><time>2009-05-17T09:38:42Z</time></trkpt>
<trkpt lat="46.34356585" lon="6.16207313"><ele>480.315918</ele><time>2009-05-17T09:38:55Z</time></trkpt>
<trkpt lat="46.34374866" lon="6.16223582"><ele>479.835083</ele><time>2009-05-17T09:39:00Z</time></trkpt>
<trkpt lat="46.34481149" lon="6.16259784"><ele>479.835083</ele><time>2009-05-17T09:39:17Z</time></trkpt>
<trkpt lat="46.34619107" lon="6.16312422"><ele>479.835083</ele><time>2009-05-17T09:39:37Z</time></trkpt>
<trkpt lat="46.34667043" lon="6.16344240"><ele>479.835083</ele><time>2009-05-17T09:39:44Z</time></trkpt>
<trkpt lat="46.34738599" lon="6.16432794"><ele>478.873901</ele><time>2009-05-17T09:39:56Z</time></trkpt>
<trkpt lat="46.34768464" lon="6.16453498"><ele>479.354492</ele><time>2009-05-17T09:40:00Z</time></trkpt>
<trkpt lat="46.34874604" lon="6.16479146"><ele>476.470581</ele><time>2009-05-17T09:40:13Z</time></trkpt>
<trkpt lat="46.35022477" lon="6.16524249"><ele>474.547974</ele><time>2009-05-17T09:40:30Z</time></trkpt>
<trkpt lat="46.35158868" lon="6.16510796"><ele>473.106079</ele><time>2009-05-17T09:40:45Z</time></trkpt>
<trkpt lat="46.35234179" lon="6.16532908"><ele>471.18335</ele><time>2009-05-17T09:40:53Z</time></trkpt>
<trkpt lat="46.35278234" lon="6.16582696"><ele>471.18335</ele><time>2009-05-17T09:40:59Z</time></trkpt>
<trkpt lat="46.35294126" lon="6.16616752"><ele>471.18335</ele><time>2009-05-17T09:41:02Z</time></trkpt>
<trkpt lat="46.35338718" lon="6.16632150"><ele>469.741333</ele><time>2009-05-17T09:41:08Z</time></trkpt>
<trkpt lat="46.35345524" lon="6.16623877"><ele>469.741333</ele><time>2009-05-17T09:41:09Z</time></trkpt>
<trkpt lat="46.35378859" lon="6.16578774"><ele>469.260742</ele><time>2009-05-17T09:41:14Z</time></trkpt>
<trkpt lat="46.35419436" lon="6.16569847"><ele>469.260742</ele><time>2009-05-17T09:41:19Z</time></trkpt>
<trkpt lat="46.35502978" lon="6.16608328"><ele>471.66394</ele><time>2009-05-17T09:41:30Z</time></trkpt>
<trkpt lat="46.35549934" lon="6.16590366"><ele>473.106079</ele><time>2009-05-17T09:41:37Z</time></trkpt>
<trkpt lat="46.35572506" lon="6.16549688"><ele>473.58667</ele><time>2009-05-17T09:41:42Z</time></trkpt>
<trkpt lat="46.35613988" lon="6.16529329"><ele>473.58667</ele><time>2009-05-17T09:41:48Z</time></trkpt>
<trkpt lat="46.35739826" lon="6.16564776"><ele>476.951294</ele><time>2009-05-17T09:42:06Z</time></trkpt>
<trkpt lat="46.35867407" lon="6.16626198"><ele>476.470581</ele><time>2009-05-17T09:42:23Z</time></trkpt>
<trkpt lat="46.35999748" lon="6.16752103"><ele>474.547974</ele><time>2009-05-17T09:42:42Z</time></trkpt>
<trkpt lat="46.36123365" lon="6.16825595"><ele>475.028687</ele><time>2009-05-17T09:42:58Z</time></trkpt>
<trkpt lat="46.36282990" lon="6.16913228"><ele>475.028687</ele><time>2009-05-17T09:43:19Z</time></trkpt>
<trkpt lat="46.36410705" lon="6.16971005"><ele>473.58667</ele><time>2009-05-17T09:43:35Z</time></trkpt>
<trkpt lat="46.36568435" lon="6.17008103"><ele>472.625366</ele><time>2009-05-17T09:43:54Z</time></trkpt>
<trkpt lat="46.36711355" lon="6.17020584"><ele>471.18335</ele><time>2009-05-17T09:44:11Z</time></trkpt>
<trkpt lat="46.36821778" lon="6.16960075"><ele>470.221924</ele><time>2009-05-17T09:44:25Z</time></trkpt>
<trkpt lat="46.36979409" lon="6.16810315"><ele>470.221924</ele><time>2009-05-17T09:44:47Z</time></trkpt>
<trkpt lat="46.37143543" lon="6.16654202"><ele>471.18335</ele><time>2009-05-17T09:45:12Z</time></trkpt>
<trkpt lat="46.37258409" lon="6.16527812"><ele>473.106079</ele><time>2009-05-17T09:45:31Z</time></trkpt>
<trkpt lat="46.37322773" lon="6.16411496"><ele>474.547974</ele><time>2009-05-17T09:45:45Z</time></trkpt>
<trkpt lat="46.37428075" lon="6.16338029"><ele>475.509277</ele><time>2009-05-17T09:46:02Z</time></trkpt>
<trkpt lat="46.37448024" lon="6.16308994"><ele>475.989868</ele><time>2009-05-17T09:46:06Z</time></trkpt>
<trkpt lat="46.37455467" lon="6.16291777"><ele>475.509277</ele><time>2009-05-17T09:46:08Z</time></trkpt>
<trkpt lat="46.37523143" lon="6.16183885"><ele>478.393188</ele><time>2009-05-17T09:46:23Z</time></trkpt>
<trkpt lat="46.37599980" lon="6.16146284"><ele>480.796631</ele><time>2009-05-17T09:46:36Z</time></trkpt>
<trkpt lat="46.37711132" lon="6.16120443"><ele>484.161133</ele><time>2009-05-17T09:46:57Z</time></trkpt>
<trkpt lat="46.37811983" lon="6.16095037"><ele>487.045044</ele><time>2009-05-17T09:47:17Z</time></trkpt>
<trkpt lat="46.37917486" lon="6.16068919"><ele>488.00647</ele><time>2009-05-17T09:47:37Z</time></trkpt>
<trkpt lat="46.37947912" lon="6.16047495"><ele>488.00647</ele><time>2009-05-17T09:47:43Z</time></trkpt>
<trkpt lat="46.37963888" lon="6.16022123"><ele>488.00647</ele><time>2009-05-17T09:47:47Z</time></trkpt>
<trkpt lat="46.37989629" lon="6.15934683"><ele>490.890381</ele><time>2009-05-17T09:47:58Z</time></trkpt>
<trkpt lat="46.38030399" lon="6.15896478"><ele>493.293579</ele><time>2009-05-17T09:48:07Z</time></trkpt>
<trkpt lat="46.38035545" lon="6.15896990"><ele>493.293579</ele><time>2009-05-17T09:48:08Z</time></trkpt>
<trkpt lat="46.38045285" lon="6.15900208"><ele>493.774292</ele><time>2009-05-17T09:48:10Z</time></trkpt>
<trkpt lat="46.38093263" lon="6.15930366"><ele>497.138916</ele><time>2009-05-17T09:48:21Z</time></trkpt>
<trkpt lat="46.38133530" lon="6.15956132"><ele>500.022949</ele><time>2009-05-17T09:48:31Z</time></trkpt>
<trkpt lat="46.38184969" lon="6.15988872"><ele>503.387451</ele><time>2009-05-17T09:48:44Z</time></trkpt>
<trkpt lat="46.38259468" lon="6.16045634"><ele>506.271484</ele><time>2009-05-17T09:49:03Z</time></trkpt>
<trkpt lat="46.38328015" lon="6.16106680"><ele>509.636108</ele><time>2009-05-17T09:49:21Z</time></trkpt>
<trkpt lat="46.38417718" lon="6.16186853"><ele>511.078003</ele><time>2009-05-17T09:49:41Z</time></trkpt>
<trkpt lat="46.38523757" lon="6.16241553"><ele>512.039429</ele><time>2009-05-17T09:49:59Z</time></trkpt>
<trkpt lat="46.38633602" lon="6.16232777"><ele>513.962036</ele><time>2009-05-17T09:50:16Z</time></trkpt>
<trkpt lat="46.38729190" lon="6.16221386"><ele>516.845947</ele><time>2009-05-17T09:50:31Z</time></trkpt>
<trkpt lat="46.38839177" lon="6.16264947"><ele>517.807251</ele><time>2009-05-17T09:50:49Z</time></trkpt>
<trkpt lat="46.38993965" lon="6.16350325"><ele>519.729858</ele><time>2009-05-17T09:51:14Z</time></trkpt>
<trkpt lat="46.39140934" lon="6.16445577"><ele>521.652588</ele><time>2009-05-17T09:51:38Z</time></trkpt>
<trkpt lat="46.39207570" lon="6.16499405"><ele>525.017212</ele><time>2009-05-17T09:51:51Z</time></trkpt>
<trkpt lat="46.39328018" lon="6.16610952"><ele>527.901001</ele><time>2009-05-17T09:52:15Z</time></trkpt>
<trkpt lat="46.39476562" lon="6.16751717"><ele>529.34314</ele><time>2009-05-17T09:52:41Z</time></trkpt>
<trkpt lat="46.39623446" lon="6.16890522"><ele>531.265747</ele><time>2009-05-17T09:53:06Z</time></trkpt>
<trkpt lat="46.39729913" lon="6.17004608"><ele>534.149658</ele><time>2009-05-17T09:53:25Z</time></trkpt>
<trkpt lat="46.39844947" lon="6.17166789"><ele>536.072388</ele><time>2009-05-17T09:53:48Z</time></trkpt>
<trkpt lat="46.39886353" lon="6.17231263"><ele>535.110962</ele><time>2009-05-17T09:53:56Z</time></trkpt>
<trkpt lat="46.39956376" lon="6.17330697"><ele>533.188354</ele><time>2009-05-17T09:54:08Z</time></trkpt>
<trkpt lat="46.40038233" lon="6.17463986"><ele>531.265747</ele><time>2009-05-17T09:54:23Z</time></trkpt>
<trkpt lat="46.40077544" lon="6.17454867"><ele>531.746338</ele><time>2009-05-17T09:54:29Z</time></trkpt>
<trkpt lat="46.40082632" lon="6.17445974"><ele>531.746338</ele><time>2009-05-17T09:54:30Z</time></trkpt>
<trkpt lat="46.40119823" lon="6.17378005"><ele>534.630371</ele><time>2009-05-17T09:54:38Z</time></trkpt>
<trkpt lat="46.40124433" lon="6.17369832"><ele>534.630371</ele><time>2009-05-17T09:54:39Z</time></trkpt>
<trkpt lat="46.40142957" lon="6.17338266"><ele>534.630371</ele><time>2009-05-17T09:54:43Z</time></trkpt>
<trkpt lat="46.40167449" lon="6.17329977"><ele>535.591553</ele><time>2009-05-17T09:54:47Z</time></trkpt>
<trkpt lat="46.40305054" lon="6.17412798"><ele>535.110962</ele><time>2009-05-17T09:55:06Z</time></trkpt>
<trkpt lat="46.40393668" lon="6.17461950"><ele>532.227051</ele><time>2009-05-17T09:55:17Z</time></trkpt>
<trkpt lat="46.40497536" lon="6.17467968"><ele>532.227051</ele><time>2009-05-17T09:55:29Z</time></trkpt>
<trkpt lat="46.40532807" lon="6.17460617"><ele>535.591553</ele><time>2009-05-17T09:55:34Z</time></trkpt>
<trkpt lat="46.40539588" lon="6.17459997"><ele>536.072388</ele><time>2009-05-17T09:55:35Z</time></trkpt>
<trkpt lat="46.40580987" lon="6.17483717"><ele>537.994995</ele><time>2009-05-17T09:55:43Z</time></trkpt>
<trkpt lat="46.40653750" lon="6.17569984"><ele>539.43689</ele><time>2009-05-17T09:55:59Z</time></trkpt>
<trkpt lat="46.40746429" lon="6.17642823"><ele>541.84021</ele><time>2009-05-17T09:56:17Z</time></trkpt>
<trkpt lat="46.40812947" lon="6.17728746"><ele>541.84021</ele><time>2009-05-17T09:56:31Z</time></trkpt>
<trkpt lat="46.40847405" lon="6.17777897"><ele>543.282104</ele><time>2009-05-17T09:56:39Z</time></trkpt>
<trkpt lat="46.40855066" lon="6.17791015"><ele>543.762817</ele><time>2009-05-17T09:56:41Z</time></trkpt>
<trkpt lat="46.40881788" lon="6.17827769"><ele>543.282104</ele><time>2009-05-17T09:56:47Z</time></trkpt>
<trkpt lat="46.40931384" lon="6.17835280"><ele>542.801514</ele><time>2009-05-17T09:56:55Z</time></trkpt>
<trkpt lat="46.40975204" lon="6.17805088"><ele>543.282104</ele><time>2009-05-17T09:57:02Z</time></trkpt>
<trkpt lat="46.41040642" lon="6.17814484"><ele>542.801514</ele><time>2009-05-17T09:57:12Z</time></trkpt>
<trkpt lat="46.41185045" lon="6.17956063"><ele>544.243652</ele><time>2009-05-17T09:57:36Z</time></trkpt>
<trkpt lat="46.41228380" lon="6.18039488"><ele>544.243652</ele><time>2009-05-17T09:57:46Z</time></trkpt>
<trkpt lat="46.41259393" lon="6.18148553"><ele>543.762817</ele><time>2009-05-17T09:57:57Z</time></trkpt>
<trkpt lat="46.41312727" lon="6.18270602"><ele>546.646851</ele><time>2009-05-17T09:58:11Z</time></trkpt>
<trkpt lat="46.41359783" lon="6.18333936"><ele>547.608154</ele><time>2009-05-17T09:58:20Z</time></trkpt>
<trkpt lat="46.41388793" lon="6.18429372"><ele>548.569336</ele><time>2009-05-17T09:58:30Z</time></trkpt>
<trkpt lat="46.41443929" lon="6.18527935"><ele>549.530762</ele><time>2009-05-17T09:58:43Z</time></trkpt>
<trkpt lat="46.41518142" lon="6.18678834"><ele>549.530762</ele><time>2009-05-17T09:59:03Z</time></trkpt>
<trkpt lat="46.41550312" lon="6.18724264"><ele>549.530762</ele><time>2009-05-17T09:59:12Z</time></trkpt>
<trkpt lat="46.41586798" lon="6.18855282"><ele>548.569336</ele><time>2009-05-17T09:59:26Z</time></trkpt>
<trkpt lat="46.41645798" lon="6.19018226"><ele>548.088867</ele><time>2009-05-17T09:59:44Z</time></trkpt>
<trkpt lat="46.41709409" lon="6.19159763"><ele>549.530762</ele><time>2009-05-17T10:00:01Z</time></trkpt>
<trkpt lat="46.41792658" lon="6.19281577"><ele>549.530762</ele><time>2009-05-17T10:00:19Z</time></trkpt>
<trkpt lat="46.41833302" lon="6.19331483"><ele>552.895264</ele><time>2009-05-17T10:00:28Z</time></trkpt>
<trkpt lat="46.41894766" lon="6.19414807"><ele>554.817871</ele><time>2009-05-17T10:00:44Z</time></trkpt>
<trkpt lat="46.41976448" lon="6.19536085"><ele>558.182861</ele><time>2009-05-17T10:01:04Z</time></trkpt>
<trkpt lat="46.42082395" lon="6.19661445"><ele>558.66333</ele><time>2009-05-17T10:01:27Z</time></trkpt>
<trkpt lat="46.42160280" lon="6.19708476"><ele>559.144043</ele><time>2009-05-17T10:01:41Z</time></trkpt>
<trkpt lat="46.42200253" lon="6.19732289"><ele>561.06665</ele><time>2009-05-17T10:01:51Z</time></trkpt>
<trkpt lat="46.42279630" lon="6.19768255"><ele>561.547363</ele><time>2009-05-17T10:02:06Z</time></trkpt>
<trkpt lat="46.42351136" lon="6.19806242"><ele>561.547363</ele><time>2009-05-17T10:02:18Z</time></trkpt>
<trkpt lat="46.42441794" lon="6.19849015"><ele>563.469971</ele><time>2009-05-17T10:02:34Z</time></trkpt>
<trkpt lat="46.42529905" lon="6.19888980"><ele>564.431152</ele><time>2009-05-17T10:02:50Z</time></trkpt>
<trkpt lat="46.42587287" lon="6.19912986"><ele>562.989258</ele><time>2009-05-17T10:02:59Z</time></trkpt>
<trkpt lat="46.42635567" lon="6.19899197"><ele>562.508545</ele><time>2009-05-17T10:03:06Z</time></trkpt>
<trkpt lat="46.42694634" lon="6.19849585"><ele>558.66333</ele><time>2009-05-17T10:03:14Z</time></trkpt>
<trkpt lat="46.42703377" lon="6.19841413"><ele>558.66333</ele><time>2009-05-17T10:03:15Z</time></trkpt>
<trkpt lat="46.42739779" lon="6.19803677"><ele>554.817871</ele><time>2009-05-17T10:03:19Z</time></trkpt>
<trkpt lat="46.42773039" lon="6.19751416"><ele>550.972656</ele><time>2009-05-17T10:03:23Z</time></trkpt>
<trkpt lat="46.42790574" lon="6.19722943"><ele>550.011475</ele><time>2009-05-17T10:03:25Z</time></trkpt>
<trkpt lat="46.42861116" lon="6.19703857"><ele>550.492188</ele><time>2009-05-17T10:03:31Z</time></trkpt>
<trkpt lat="46.42879128" lon="6.19716564"><ele>550.492188</ele><time>2009-05-17T10:03:33Z</time></trkpt>
<trkpt lat="46.42893956" lon="6.19727972"><ele>551.453369</ele><time>2009-05-17T10:03:35Z</time></trkpt>
<trkpt lat="46.42904400" lon="6.19741777"><ele>552.414551</ele><time>2009-05-17T10:03:37Z</time></trkpt>
<trkpt lat="46.42910158" lon="6.19758566"><ele>553.375977</ele><time>2009-05-17T10:03:39Z</time></trkpt>
<trkpt lat="46.42916210" lon="6.19783108"><ele>554.817871</ele><time>2009-05-17T10:03:42Z</time></trkpt>
<trkpt lat="46.42921650" lon="6.19840583"><ele>558.182861</ele><time>2009-05-17T10:03:50Z</time></trkpt>
<trkpt lat="46.42921004" lon="6.19881629"><ele>561.547363</ele><time>2009-05-17T10:03:57Z</time></trkpt>
<trkpt lat="46.42915506" lon="6.19915769"><ele>563.469971</ele><time>2009-05-17T10:04:03Z</time></trkpt>
<trkpt lat="46.42888298" lon="6.20007332"><ele>566.35376</ele><time>2009-05-17T10:04:18Z</time></trkpt>
<trkpt lat="46.42867017" lon="6.20082099"><ele>565.873291</ele><time>2009-05-17T10:04:28Z</time></trkpt>
<trkpt lat="46.42877368" lon="6.20144469"><ele>565.873291</ele><time>2009-05-17T10:04:35Z</time></trkpt>
<trkpt lat="46.42890268" lon="6.20163093"><ele>566.35376</ele><time>2009-05-17T10:04:38Z</time></trkpt>
<trkpt lat="46.42910393" lon="6.20218246"><ele>565.392578</ele><time>2009-05-17T10:04:45Z</time></trkpt>
<trkpt lat="46.42952864" lon="6.20310640"><ele>562.508545</ele><time>2009-05-17T10:04:55Z</time></trkpt>
<trkpt lat="46.42977096" lon="6.20361778"><ele>562.028076</ele><time>2009-05-17T10:05:00Z</time></trkpt>
<trkpt lat="46.43016583" lon="6.20403646"><ele>561.06665</ele><time>2009-05-17T10:05:06Z</time></trkpt>
<trkpt lat="46.43105448" lon="6.20525812"><ele>561.06665</ele><time>2009-05-17T10:05:23Z</time></trkpt>
<trkpt lat="46.43195076" lon="6.20661188"><ele>563.469971</ele><time>2009-05-17T10:05:43Z</time></trkpt>
<trkpt lat="46.43254906" lon="6.20792415"><ele>562.989258</ele><time>2009-05-17T10:06:00Z</time></trkpt>
<trkpt lat="46.43317795" lon="6.20930633"><ele>560.105225</ele><time>2009-05-17T10:06:16Z</time></trkpt>
<trkpt lat="46.43348247" lon="6.21069655"><ele>559.144043</ele><time>2009-05-17T10:06:31Z</time></trkpt>
<trkpt lat="46.43334425" lon="6.21210865"><ele>557.221436</ele><time>2009-05-17T10:06:45Z</time></trkpt>
<trkpt lat="46.43320436" lon="6.21260184"><ele>553.856689</ele><time>2009-05-17T10:06:49Z</time></trkpt>
<trkpt lat="46.43306396" lon="6.21313132"><ele>551.934082</ele><time>2009-05-17T10:06:53Z</time></trkpt>
<trkpt lat="46.43306932" lon="6.21358998"><ele>547.608154</ele><time>2009-05-17T10:06:57Z</time></trkpt>
<trkpt lat="46.43320276" lon="6.21400815"><ele>544.724243</ele><time>2009-05-17T10:07:01Z</time></trkpt>
<trkpt lat="46.43336889" lon="6.21431787"><ele>543.282104</ele><time>2009-05-17T10:07:04Z</time></trkpt>
<trkpt lat="46.43346939" lon="6.21454225"><ele>542.801514</ele><time>2009-05-17T10:07:06Z</time></trkpt>
<trkpt lat="46.43407683" lon="6.21574916"><ele>543.762817</ele><time>2009-05-17T10:07:19Z</time></trkpt>
<trkpt lat="46.43421303" lon="6.21601822"><ele>546.16626</ele><time>2009-05-17T10:07:23Z</time></trkpt>
<trkpt lat="46.43425796" lon="6.21615627"><ele>546.646851</ele><time>2009-05-17T10:07:25Z</time></trkpt>
<trkpt lat="46.43433365" lon="6.21633346"><ele>548.569336</ele><time>2009-05-17T10:07:28Z</time></trkpt>
<trkpt lat="46.43447556" lon="6.21674015"><ele>551.453369</ele><time>2009-05-17T10:07:35Z</time></trkpt>
<trkpt lat="46.43473489" lon="6.21753165"><ele>553.375977</ele><time>2009-05-17T10:07:49Z</time></trkpt>
<trkpt lat="46.43491762" lon="6.21780549"><ele>552.414551</ele><time>2009-05-17T10:07:53Z</time></trkpt>
<trkpt lat="46.43517544" lon="6.21824169"><ele>549.050049</ele><time>2009-05-17T10:07:58Z</time></trkpt>
<trkpt lat="46.43533420" lon="6.21838468"><ele>548.088867</ele><time>2009-05-17T10:08:00Z</time></trkpt>
<trkpt lat="46.43578883" lon="6.21876254"><ele>546.16626</ele><time>2009-05-17T10:08:05Z</time></trkpt>
<trkpt lat="46.43593954" lon="6.21962436"><ele>543.282104</ele><time>2009-05-17T10:08:11Z</time></trkpt>
<trkpt lat="46.43587248" lon="6.21976627"><ele>542.801514</ele><time>2009-05-17T10:08:12Z</time></trkpt>
<trkpt lat="46.43560267" lon="6.22032819"><ele>540.398315</ele><time>2009-05-17T10:08:16Z</time></trkpt>
<trkpt lat="46.43547862" lon="6.22079029"><ele>538.956299</ele><time>2009-05-17T10:08:19Z</time></trkpt>
<trkpt lat="46.43551273" lon="6.22124182"><ele>538.956299</ele><time>2009-05-17T10:08:22Z</time></trkpt>
<trkpt lat="46.43575044" lon="6.22230574"><ele>539.917603</ele><time>2009-05-17T10:08:30Z</time></trkpt>
<trkpt lat="46.43569395" lon="6.22301283"><ele>537.994995</ele><time>2009-05-17T10:08:35Z</time></trkpt>
<trkpt lat="46.43546035" lon="6.22387022"><ele>535.110962</ele><time>2009-05-17T10:08:41Z</time></trkpt>
<trkpt lat="46.43542514" lon="6.22401682"><ele>534.630371</ele><time>2009-05-17T10:08:42Z</time></trkpt>
<trkpt lat="46.43541986" lon="6.22449777"><ele>532.707764</ele><time>2009-05-17T10:08:45Z</time></trkpt>
<trkpt lat="46.43558473" lon="6.22494914"><ele>532.227051</ele><time>2009-05-17T10:08:48Z</time></trkpt>
<trkpt lat="46.43572949" lon="6.22536412"><ele>531.265747</ele><time>2009-05-17T10:08:51Z</time></trkpt>
<trkpt lat="46.43556227" lon="6.22589596"><ele>531.746338</ele><time>2009-05-17T10:08:55Z</time></trkpt>
<trkpt lat="46.43467287" lon="6.22696783"><ele>529.34314</ele><time>2009-05-17T10:09:07Z</time></trkpt>
<trkpt lat="46.43427749" lon="6.22710513"><ele>527.42041</ele><time>2009-05-17T10:09:11Z</time></trkpt>
<trkpt lat="46.43287989" lon="6.22663205"><ele>524.536499</ele><time>2009-05-17T10:09:25Z</time></trkpt>
<trkpt lat="46.43222426" lon="6.22621732"><ele>521.171997</ele><time>2009-05-17T10:09:32Z</time></trkpt>
<trkpt lat="46.43191287" lon="6.22617465"><ele>520.210571</ele><time>2009-05-17T10:09:35Z</time></trkpt>
<trkpt lat="46.43170048" lon="6.22627063"><ele>518.768555</ele><time>2009-05-17T10:09:37Z</time></trkpt>
<trkpt lat="46.43150367" lon="6.22643072"><ele>517.807251</ele><time>2009-05-17T10:09:39Z</time></trkpt>
<trkpt lat="46.43103906" lon="6.22689986"><ele>515.884644</ele><time>2009-05-17T10:09:44Z</time></trkpt>
<trkpt lat="46.43042936" lon="6.22744854"><ele>512.039429</ele><time>2009-05-17T10:09:50Z</time></trkpt>
<trkpt lat="46.43022358" lon="6.22762288"><ele>510.59729</ele><time>2009-05-17T10:09:52Z</time></trkpt>
<trkpt lat="46.42973886" lon="6.22804835"><ele>507.232788</ele><time>2009-05-17T10:09:57Z</time></trkpt>
<trkpt lat="46.42955068" lon="6.22823442"><ele>506.271484</ele><time>2009-05-17T10:09:59Z</time></trkpt>
<trkpt lat="46.42935949" lon="6.22842754"><ele>504.348877</ele><time>2009-05-17T10:10:01Z</time></trkpt>
<trkpt lat="46.42915674" lon="6.22857749"><ele>502.906738</ele><time>2009-05-17T10:10:03Z</time></trkpt>
<trkpt lat="46.42813892" lon="6.22896038"><ele>503.387451</ele><time>2009-05-17T10:10:14Z</time></trkpt>
<trkpt lat="46.42745613" lon="6.22903909"><ele>500.022949</ele><time>2009-05-17T10:10:21Z</time></trkpt>
<trkpt lat="46.42724005" lon="6.22908703"><ele>498.580933</ele><time>2009-05-17T10:10:23Z</time></trkpt>
<trkpt lat="46.42713360" lon="6.22912735"><ele>498.580933</ele><time>2009-05-17T10:10:24Z</time></trkpt>
<trkpt lat="46.42662046" lon="6.22982489"><ele>495.696899</ele><time>2009-05-17T10:10:31Z</time></trkpt>
<trkpt lat="46.42630345" lon="6.23192095"><ele>493.293579</ele><time>2009-05-17T10:10:46Z</time></trkpt>
<trkpt lat="46.42608074" lon="6.23333473"><ele>490.890381</ele><time>2009-05-17T10:10:56Z</time></trkpt>
<trkpt lat="46.42590707" lon="6.23384317"><ele>489.448364</ele><time>2009-05-17T10:11:00Z</time></trkpt>
<trkpt lat="46.42580548" lon="6.23441859"><ele>487.525635</ele><time>2009-05-17T10:11:04Z</time></trkpt>
<trkpt lat="46.42579308" lon="6.23532568"><ele>486.08374</ele><time>2009-05-17T10:11:10Z</time></trkpt>
<trkpt lat="46.42545302" lon="6.23589884"><ele>483.68042</ele><time>2009-05-17T10:11:16Z</time></trkpt>
<trkpt lat="46.42535177" lon="6.23587989"><ele>483.68042</ele><time>2009-05-17T10:11:17Z</time></trkpt>
<trkpt lat="46.42465213" lon="6.23604485"><ele>481.277222</ele><time>2009-05-17T10:11:25Z</time></trkpt>
<trkpt lat="46.42457720" lon="6.23637409"><ele>480.315918</ele><time>2009-05-17T10:11:30Z</time></trkpt>
<trkpt lat="46.42504835" lon="6.23810093"><ele>483.68042</ele><time>2009-05-17T10:11:48Z</time></trkpt>
<trkpt lat="46.42565939" lon="6.23978762"><ele>482.719238</ele><time>2009-05-17T10:12:05Z</time></trkpt>
<trkpt lat="46.42660235" lon="6.24116753"><ele>479.354492</ele><time>2009-05-17T10:12:19Z</time></trkpt>
<trkpt lat="46.42766492" lon="6.24305774"><ele>477.912476</ele><time>2009-05-17T10:12:35Z</time></trkpt>
<trkpt lat="46.42841795" lon="6.24474945"><ele>477.431885</ele><time>2009-05-17T10:12:50Z</time></trkpt>
<trkpt lat="46.42930216" lon="6.24590398"><ele>475.028687</ele><time>2009-05-17T10:13:04Z</time></trkpt>
<trkpt lat="46.42945144" lon="6.24657403"><ele>472.625366</ele><time>2009-05-17T10:13:09Z</time></trkpt>
<trkpt lat="46.42912698" lon="6.24740216"><ele>469.741333</ele><time>2009-05-17T10:13:15Z</time></trkpt>
<trkpt lat="46.42903226" lon="6.24749528"><ele>469.260742</ele><time>2009-05-17T10:13:16Z</time></trkpt>
<trkpt lat="46.42866648" lon="6.24815427"><ele>465.415527</ele><time>2009-05-17T10:13:21Z</time></trkpt>
<trkpt lat="46.42864846" lon="6.24868937"><ele>463.012085</ele><time>2009-05-17T10:13:24Z</time></trkpt>
<trkpt lat="46.42872222" lon="6.24902414"><ele>463.012085</ele><time>2009-05-17T10:13:26Z</time></trkpt>
<trkpt lat="46.42885298" lon="6.24973912"><ele>460.128174</ele><time>2009-05-17T10:13:31Z</time></trkpt>
<trkpt lat="46.42904107" lon="6.25022694"><ele>459.647583</ele><time>2009-05-17T10:13:38Z</time></trkpt>
<trkpt lat="46.42917283" lon="6.25030599"><ele>459.16687</ele><time>2009-05-17T10:13:40Z</time></trkpt>
<trkpt lat="46.42936779" lon="6.25048737"><ele>459.647583</ele><time>2009-05-17T10:13:43Z</time></trkpt>
<trkpt lat="46.42972905" lon="6.25104410"><ele>460.128174</ele><time>2009-05-17T10:13:50Z</time></trkpt>
<trkpt lat="46.42984070" lon="6.25186083"><ele>460.608765</ele><time>2009-05-17T10:13:57Z</time></trkpt>
<trkpt lat="46.42952478" lon="6.25311770"><ele>459.16687</ele><time>2009-05-17T10:14:08Z</time></trkpt>
<trkpt lat="46.42968697" lon="6.25362044"><ele>457.244263</ele><time>2009-05-17T10:14:14Z</time></trkpt>
<trkpt lat="46.43020607" lon="6.25435553"><ele>456.76355</ele><time>2009-05-17T10:14:23Z</time></trkpt>
<trkpt lat="46.43124668" lon="6.25578088"><ele>458.686157</ele><time>2009-05-17T10:14:41Z</time></trkpt>
<trkpt lat="46.43153342" lon="6.25607785"><ele>461.089478</ele><time>2009-05-17T10:14:46Z</time></trkpt>
<trkpt lat="46.43215444" lon="6.25657682"><ele>464.454102</ele><time>2009-05-17T10:14:59Z</time></trkpt>
<trkpt lat="46.43243398" lon="6.25670582"><ele>465.896118</ele><time>2009-05-17T10:15:05Z</time></trkpt>
<trkpt lat="46.43256146" lon="6.25682459"><ele>466.857422</ele><time>2009-05-17T10:15:08Z</time></trkpt>
<trkpt lat="46.43306773" lon="6.25779924"><ele>465.896118</ele><time>2009-05-17T10:15:21Z</time></trkpt>
<trkpt lat="46.43337283" lon="6.25820786"><ele>464.934814</ele><time>2009-05-17T10:15:26Z</time></trkpt>
<trkpt lat="46.43440892" lon="6.25913925"><ele>463.012085</ele><time>2009-05-17T10:15:38Z</time></trkpt>
<trkpt lat="46.43524778" lon="6.25929918"><ele>463.492798</ele><time>2009-05-17T10:15:47Z</time></trkpt>
<trkpt lat="46.43554232" lon="6.25958442"><ele>463.012085</ele><time>2009-05-17T10:15:51Z</time></trkpt>
<trkpt lat="46.43625009" lon="6.26145249"><ele>460.128174</ele><time>2009-05-17T10:16:06Z</time></trkpt>
<trkpt lat="46.43703497" lon="6.26342358"><ele>457.244263</ele><time>2009-05-17T10:16:22Z</time></trkpt>
<trkpt lat="46.43785866" lon="6.26516702"><ele>454.84082</ele><time>2009-05-17T10:16:37Z</time></trkpt>
<trkpt lat="46.43823995" lon="6.26609288"><ele>454.360229</ele><time>2009-05-17T10:16:45Z</time></trkpt>
<trkpt lat="46.43824842" lon="6.26676117"><ele>453.879639</ele><time>2009-05-17T10:16:51Z</time></trkpt>
<trkpt lat="46.43845813" lon="6.26716887"><ele>453.879639</ele><time>2009-05-17T10:16:56Z</time></trkpt>
<trkpt lat="46.43969488" lon="6.26851743"><ele>450.515015</ele><time>2009-05-17T10:17:13Z</time></trkpt>
<trkpt lat="46.44131393" lon="6.27081843"><ele>451.476318</ele><time>2009-05-17T10:17:38Z</time></trkpt>
<trkpt lat="46.44247550" lon="6.27285666"><ele>450.515015</ele><time>2009-05-17T10:17:58Z</time></trkpt>
<trkpt lat="46.44352927" lon="6.27472079"><ele>449.072998</ele><time>2009-05-17T10:18:17Z</time></trkpt>
<trkpt lat="46.44476560" lon="6.27636717"><ele>450.995605</ele><time>2009-05-17T10:18:36Z</time></trkpt>
<trkpt lat="46.44587193" lon="6.27727794"><ele>448.592407</ele><time>2009-05-17T10:18:51Z</time></trkpt>
<trkpt lat="46.44682663" lon="6.27852316"><ele>451.476318</ele><time>2009-05-17T10:19:07Z</time></trkpt>
<trkpt lat="46.44693316" lon="6.27866389"><ele>452.437622</ele><time>2009-05-17T10:19:09Z</time></trkpt>
<trkpt lat="46.44744663" lon="6.27939002"><ele>455.321533</ele><time>2009-05-17T10:19:20Z</time></trkpt>
<trkpt lat="46.44805047" lon="6.28060849"><ele>457.724976</ele><time>2009-05-17T10:19:37Z</time></trkpt>
<trkpt lat="46.44861859" lon="6.28232905"><ele>458.205566</ele><time>2009-05-17T10:19:56Z</time></trkpt>
<trkpt lat="46.44960833" lon="6.28423585"><ele>457.724976</ele><time>2009-05-17T10:20:17Z</time></trkpt>
<trkpt lat="46.45044836" lon="6.28605438"><ele>458.686157</ele><time>2009-05-17T10:20:36Z</time></trkpt>
<trkpt lat="46.45081314" lon="6.28753287"><ele>461.57019</ele><time>2009-05-17T10:20:52Z</time></trkpt>
<trkpt lat="46.45107147" lon="6.28855630"><ele>464.934814</ele><time>2009-05-17T10:21:04Z</time></trkpt>
<trkpt lat="46.45145494" lon="6.28974468"><ele>467.338135</ele><time>2009-05-17T10:21:21Z</time></trkpt>
<trkpt lat="46.45173892" lon="6.29019052"><ele>469.260742</ele><time>2009-05-17T10:21:29Z</time></trkpt>
<trkpt lat="46.45185283" lon="6.29033485"><ele>470.702637</ele><time>2009-05-17T10:21:32Z</time></trkpt>
<trkpt lat="46.45193439" lon="6.29043024"><ele>471.18335</ele><time>2009-05-17T10:21:34Z</time></trkpt>
<trkpt lat="46.45215324" lon="6.29072822"><ele>472.625366</ele><time>2009-05-17T10:21:40Z</time></trkpt>
<trkpt lat="46.45265498" lon="6.29193538"><ele>472.144653</ele><time>2009-05-17T10:21:55Z</time></trkpt>
<trkpt lat="46.45248315" lon="6.29241860"><ele>471.66394</ele><time>2009-05-17T10:22:00Z</time></trkpt>
<trkpt lat="46.45216288" lon="6.29280140"><ele>469.741333</ele><time>2009-05-17T10:22:04Z</time></trkpt>
<trkpt lat="46.45201494" lon="6.29332200"><ele>467.338135</ele><time>2009-05-17T10:22:08Z</time></trkpt>
<trkpt lat="46.45203413" lon="6.29346918"><ele>467.338135</ele><time>2009-05-17T10:22:09Z</time></trkpt>
<trkpt lat="46.45253227" lon="6.29521237"><ele>464.934814</ele><time>2009-05-17T10:22:21Z</time></trkpt>
<trkpt lat="46.45364799" lon="6.29751337"><ele>464.934814</ele><time>2009-05-17T10:22:42Z</time></trkpt>
<trkpt lat="46.45452582" lon="6.29922344"><ele>465.896118</ele><time>2009-05-17T10:23:01Z</time></trkpt>
<trkpt lat="46.45555629" lon="6.30084719"><ele>469.260742</ele><time>2009-05-17T10:23:22Z</time></trkpt>
<trkpt lat="46.45617823" lon="6.30237789"><ele>471.18335</ele><time>2009-05-17T10:23:39Z</time></trkpt>
<trkpt lat="46.45651946" lon="6.30424144"><ele>473.106079</ele><time>2009-05-17T10:23:57Z</time></trkpt>
<trkpt lat="46.45701173" lon="6.30584540"><ele>473.106079</ele><time>2009-05-17T10:24:13Z</time></trkpt>
<trkpt lat="46.45737785" lon="6.30794498"><ele>472.625366</ele><time>2009-05-17T10:24:32Z</time></trkpt>
<trkpt lat="46.45773182" lon="6.30934585"><ele>469.260742</ele><time>2009-05-17T10:24:43Z</time></trkpt>
<trkpt lat="46.45802200" lon="6.31073875"><ele>465.896118</ele><time>2009-05-17T10:24:53Z</time></trkpt>
<trkpt lat="46.45849532" lon="6.31275762"><ele>462.531372</ele><time>2009-05-17T10:25:07Z</time></trkpt>
<trkpt lat="46.45867922" lon="6.31333488"><ele>459.16687</ele><time>2009-05-17T10:25:11Z</time></trkpt>
<trkpt lat="46.45872507" lon="6.31347913"><ele>459.16687</ele><time>2009-05-17T10:25:12Z</time></trkpt>
<trkpt lat="46.45904358" lon="6.31449267"><ele>457.244263</ele><time>2009-05-17T10:25:19Z</time></trkpt>
<trkpt lat="46.45931910" lon="6.31535383"><ele>455.802246</ele><time>2009-05-17T10:25:25Z</time></trkpt>
<trkpt lat="46.45953904" lon="6.31605020"><ele>453.398926</ele><time>2009-05-17T10:25:30Z</time></trkpt>
<trkpt lat="46.46021437" lon="6.31780813"><ele>450.995605</ele><time>2009-05-17T10:25:44Z</time></trkpt>
<trkpt lat="46.46086036" lon="6.31920154"><ele>447.630981</ele><time>2009-05-17T10:25:56Z</time></trkpt>
<trkpt lat="46.46121140" lon="6.32060283"><ele>444.266479</ele><time>2009-05-17T10:26:06Z</time></trkpt>
<trkpt lat="46.46128214" lon="6.32089896"><ele>443.305054</ele><time>2009-05-17T10:26:08Z</time></trkpt>
<trkpt lat="46.46189762" lon="6.32247652"><ele>440.901855</ele><time>2009-05-17T10:26:20Z</time></trkpt>
<trkpt lat="46.46299247" lon="6.32399146"><ele>438.017822</ele><time>2009-05-17T10:26:35Z</time></trkpt>
<trkpt lat="46.46331643" lon="6.32462245"><ele>434.65332</ele><time>2009-05-17T10:26:40Z</time></trkpt>
<trkpt lat="46.46384608" lon="6.32636354"><ele>432.25</ele><time>2009-05-17T10:26:53Z</time></trkpt>
<trkpt lat="46.46471403" lon="6.32870913"><ele>431.769165</ele><time>2009-05-17T10:27:14Z</time></trkpt>
<trkpt lat="46.46579429" lon="6.33100762"><ele>431.769165</ele><time>2009-05-17T10:27:37Z</time></trkpt>
<trkpt lat="46.46608857" lon="6.33199585"><ele>433.211304</ele><time>2009-05-17T10:27:47Z</time></trkpt>
<trkpt lat="46.46646325" lon="6.33305113"><ele>433.691895</ele><time>2009-05-17T10:27:58Z</time></trkpt>
<trkpt lat="46.46661630" lon="6.33358162"><ele>435.133911</ele><time>2009-05-17T10:28:04Z</time></trkpt>
<trkpt lat="46.46685460" lon="6.33441034"><ele>438.017822</ele><time>2009-05-17T10:28:14Z</time></trkpt>
<trkpt lat="46.46731895" lon="6.33596325"><ele>440.901855</ele><time>2009-05-17T10:28:33Z</time></trkpt>
<trkpt lat="46.46787417" lon="6.33760912"><ele>442.343872</ele><time>2009-05-17T10:28:52Z</time></trkpt>
<trkpt lat="46.46852637" lon="6.33891502"><ele>442.824463</ele><time>2009-05-17T10:29:09Z</time></trkpt>
<trkpt lat="46.46937185" lon="6.34073004"><ele>444.266479</ele><time>2009-05-17T10:29:30Z</time></trkpt>
<trkpt lat="46.46967645" lon="6.34217173"><ele>441.863159</ele><time>2009-05-17T10:29:42Z</time></trkpt>
<trkpt lat="46.47036050" lon="6.34413167"><ele>440.421265</ele><time>2009-05-17T10:29:59Z</time></trkpt>
<trkpt lat="46.47081949" lon="6.34606797"><ele>440.421265</ele><time>2009-05-17T10:30:16Z</time></trkpt>
<trkpt lat="46.47136557" lon="6.34820033"><ele>441.863159</ele><time>2009-05-17T10:30:36Z</time></trkpt>
<trkpt lat="46.47166246" lon="6.34959986"><ele>443.305054</ele><time>2009-05-17T10:30:51Z</time></trkpt>
<trkpt lat="46.47219135" lon="6.35178644"><ele>444.266479</ele><time>2009-05-17T10:31:12Z</time></trkpt>
<trkpt lat="46.47264046" lon="6.35346408"><ele>442.824463</ele><time>2009-05-17T10:31:28Z</time></trkpt>
<trkpt lat="46.47344805" lon="6.35649162"><ele>440.421265</ele><time>2009-05-17T10:31:53Z</time></trkpt>
<trkpt lat="46.47385868" lon="6.35785360"><ele>442.343872</ele><time>2009-05-17T10:32:06Z</time></trkpt>
<trkpt lat="46.47415783" lon="6.35855424"><ele>443.785767</ele><time>2009-05-17T10:32:14Z</time></trkpt>
<trkpt lat="46.47470752" lon="6.35945790"><ele>447.150269</ele><time>2009-05-17T10:32:26Z</time></trkpt>
<trkpt lat="46.47557463" lon="6.36120703"><ele>447.630981</ele><time>2009-05-17T10:32:46Z</time></trkpt>
<trkpt lat="46.47623177" lon="6.36345380"><ele>449.553711</ele><time>2009-05-17T10:33:09Z</time></trkpt>
<trkpt lat="46.47676402" lon="6.36564592"><ele>446.669678</ele><time>2009-05-17T10:33:28Z</time></trkpt>
<trkpt lat="46.47693794" lon="6.36614665"><ele>445.227661</ele><time>2009-05-17T10:33:32Z</time></trkpt>
<trkpt lat="46.47786599" lon="6.36874722"><ele>443.305054</ele><time>2009-05-17T10:33:54Z</time></trkpt>
<trkpt lat="46.47859119" lon="6.37024700"><ele>446.189087</ele><time>2009-05-17T10:34:11Z</time></trkpt>
<trkpt lat="46.47924045" lon="6.37143245"><ele>449.072998</ele><time>2009-05-17T10:34:28Z</time></trkpt>
<trkpt lat="46.47984889" lon="6.37220618"><ele>452.437622</ele><time>2009-05-17T10:34:42Z</time></trkpt>
<trkpt lat="46.48057460" lon="6.37299442"><ele>455.802246</ele><time>2009-05-17T10:34:59Z</time></trkpt>
<trkpt lat="46.48104373" lon="6.37351435"><ele>458.205566</ele><time>2009-05-17T10:35:11Z</time></trkpt>
<trkpt lat="46.48146459" lon="6.37397728"><ele>461.089478</ele><time>2009-05-17T10:35:22Z</time></trkpt>
<trkpt lat="46.48206834" lon="6.37450148"><ele>464.454102</ele><time>2009-05-17T10:35:37Z</time></trkpt>
<trkpt lat="46.48274124" lon="6.37494732"><ele>467.818726</ele><time>2009-05-17T10:35:52Z</time></trkpt>
<trkpt lat="46.48358194" lon="6.37538100"><ele>470.702637</ele><time>2009-05-17T10:36:10Z</time></trkpt>
<trkpt lat="46.48368319" lon="6.37539047"><ele>471.66394</ele><time>2009-05-17T10:36:12Z</time></trkpt>
<trkpt lat="46.48441100" lon="6.37534143"><ele>475.028687</ele><time>2009-05-17T10:36:26Z</time></trkpt>
<trkpt lat="46.48461426" lon="6.37542467"><ele>475.028687</ele><time>2009-05-17T10:36:30Z</time></trkpt>
<trkpt lat="46.48494274" lon="6.37583429"><ele>476.951294</ele><time>2009-05-17T10:36:38Z</time></trkpt>
<trkpt lat="46.48547156" lon="6.37711287"><ele>480.796631</ele><time>2009-05-17T10:36:56Z</time></trkpt>
<trkpt lat="46.48591127" lon="6.37802079"><ele>484.161133</ele><time>2009-05-17T10:37:09Z</time></trkpt>
<trkpt lat="46.48661963" lon="6.37951395"><ele>486.564453</ele><time>2009-05-17T10:37:30Z</time></trkpt>
<trkpt lat="46.48710879" lon="6.38060426"><ele>489.929077</ele><time>2009-05-17T10:37:45Z</time></trkpt>
<trkpt lat="46.48743577" lon="6.38130189"><ele>492.812988</ele><time>2009-05-17T10:37:55Z</time></trkpt>
<trkpt lat="46.48746737" lon="6.38136936"><ele>492.812988</ele><time>2009-05-17T10:37:56Z</time></trkpt>
<trkpt lat="46.48817925" lon="6.38235340"><ele>495.216187</ele><time>2009-05-17T10:38:14Z</time></trkpt>
<trkpt lat="46.48882583" lon="6.38299864"><ele>498.580933</ele><time>2009-05-17T10:38:28Z</time></trkpt>
<trkpt lat="46.48942002" lon="6.38417169"><ele>500.50354</ele><time>2009-05-17T10:38:46Z</time></trkpt>
<trkpt lat="46.48966729" lon="6.38478675"><ele>503.868164</ele><time>2009-05-17T10:38:55Z</time></trkpt>
<trkpt lat="46.49032736" lon="6.38571488"><ele>506.271484</ele><time>2009-05-17T10:39:12Z</time></trkpt>
<trkpt lat="46.49076062" lon="6.38653723"><ele>509.155396</ele><time>2009-05-17T10:39:25Z</time></trkpt>
<trkpt lat="46.49137334" lon="6.38763350"><ele>512.52002</ele><time>2009-05-17T10:39:44Z</time></trkpt>
<trkpt lat="46.49146722" lon="6.38780667"><ele>513.962036</ele><time>2009-05-17T10:39:47Z</time></trkpt>
<trkpt lat="46.49156780" lon="6.38797288"><ele>514.442627</ele><time>2009-05-17T10:39:50Z</time></trkpt>
<trkpt lat="46.49182554" lon="6.38843992"><ele>515.884644</ele><time>2009-05-17T10:39:58Z</time></trkpt>
<trkpt lat="46.49247539" lon="6.38935950"><ele>515.884644</ele><time>2009-05-17T10:40:13Z</time></trkpt>
<trkpt lat="46.49261369" lon="6.38957994"><ele>516.365234</ele><time>2009-05-17T10:40:16Z</time></trkpt>
<trkpt lat="46.49298836" lon="6.38977398"><ele>515.884644</ele><time>2009-05-17T10:40:22Z</time></trkpt>
<trkpt lat="46.49401926" lon="6.39074276"><ele>514.442627</ele><time>2009-05-17T10:40:40Z</time></trkpt>
<trkpt lat="46.49449543" lon="6.39129790"><ele>512.039429</ele><time>2009-05-17T10:40:48Z</time></trkpt>
<trkpt lat="46.49467522" lon="6.39123729"><ele>511.558716</ele><time>2009-05-17T10:40:52Z</time></trkpt>
<trkpt lat="46.49475619" lon="6.39110997"><ele>512.039429</ele><time>2009-05-17T10:40:54Z</time></trkpt>
<trkpt lat="46.49497865" lon="6.39085994"><ele>512.52002</ele><time>2009-05-17T10:40:59Z</time></trkpt>
<trkpt lat="46.49524829" lon="6.39105842"><ele>513.481445</ele><time>2009-05-17T10:41:05Z</time></trkpt>
<trkpt lat="46.49527679" lon="6.39148992"><ele>512.039429</ele><time>2009-05-17T10:41:11Z</time></trkpt>
<trkpt lat="46.49521896" lon="6.39164206"><ele>511.078003</ele><time>2009-05-17T10:41:13Z</time></trkpt>
<trkpt lat="46.49523832" lon="6.39178706"><ele>511.558716</ele><time>2009-05-17T10:41:18Z</time></trkpt>
<trkpt lat="46.49531594" lon="6.39214363"><ele>510.59729</ele><time>2009-05-17T10:41:23Z</time></trkpt>
<trkpt lat="46.49530177" lon="6.39299003"><ele>507.713501</ele><time>2009-05-17T10:41:30Z</time></trkpt>
<trkpt lat="46.49561358" lon="6.39374717"><ele>504.348877</ele><time>2009-05-17T10:41:36Z</time></trkpt>
<trkpt lat="46.49571307" lon="6.39382462"><ele>503.868164</ele><time>2009-05-17T10:41:37Z</time></trkpt>
<trkpt lat="46.49612102" lon="6.39417155"><ele>500.984131</ele><time>2009-05-17T10:41:41Z</time></trkpt>
<trkpt lat="46.49679836" lon="6.39409854"><ele>497.619629</ele><time>2009-05-17T10:41:47Z</time></trkpt>
<trkpt lat="46.49685619" lon="6.39373477"><ele>496.177734</ele><time>2009-05-17T10:41:49Z</time></trkpt>
<trkpt lat="46.49684086" lon="6.39324367"><ele>492.812988</ele><time>2009-05-17T10:41:52Z</time></trkpt>
<trkpt lat="46.49688997" lon="6.39310688"><ele>488.967773</ele><time>2009-05-17T10:41:53Z</time></trkpt>
<trkpt lat="46.49696675" lon="6.39299808"><ele>488.967773</ele><time>2009-05-17T10:41:54Z</time></trkpt>
<trkpt lat="46.49724084" lon="6.39266532"><ele>487.525635</ele><time>2009-05-17T10:41:57Z</time></trkpt>
<trkpt lat="46.49771995" lon="6.39203039"><ele>486.08374</ele><time>2009-05-17T10:42:02Z</time></trkpt>
<trkpt lat="46.49824583" lon="6.39184012"><ele>482.719238</ele><time>2009-05-17T10:42:06Z</time></trkpt>
<trkpt lat="46.49862209" lon="6.39165647"><ele>479.354492</ele><time>2009-05-17T10:42:09Z</time></trkpt>
<trkpt lat="46.49880842" lon="6.39135338"><ele>476.470581</ele><time>2009-05-17T10:42:11Z</time></trkpt>
<trkpt lat="46.49908184" lon="6.39087277"><ele>474.547974</ele><time>2009-05-17T10:42:14Z</time></trkpt>
<trkpt lat="46.49987569" lon="6.39074997"><ele>471.66394</ele><time>2009-05-17T10:42:20Z</time></trkpt>
<trkpt lat="46.50012254" lon="6.39134324"><ele>472.625366</ele><time>2009-05-17T10:42:24Z</time></trkpt>
<trkpt lat="46.49998809" lon="6.39178899"><ele>473.106079</ele><time>2009-05-17T10:42:27Z</time></trkpt>
<trkpt lat="46.49979397" lon="6.39222125"><ele>474.067261</ele><time>2009-05-17T10:42:31Z</time></trkpt>
<trkpt lat="46.49962893" lon="6.39327535"><ele>476.951294</ele><time>2009-05-17T10:42:42Z</time></trkpt>
<trkpt lat="46.49950814" lon="6.39357090"><ele>477.912476</ele><time>2009-05-17T10:42:46Z</time></trkpt>
<trkpt lat="46.49937789" lon="6.39371633"><ele>479.835083</ele><time>2009-05-17T10:42:49Z</time></trkpt>
<trkpt lat="46.49915032" lon="6.39389176"><ele>481.757813</ele><time>2009-05-17T10:42:54Z</time></trkpt>
<trkpt lat="46.49899802" lon="6.39416065"><ele>482.238525</ele><time>2009-05-17T10:42:59Z</time></trkpt>
<trkpt lat="46.49888847" lon="6.39497420"><ele>484.161133</ele><time>2009-05-17T10:43:11Z</time></trkpt>
<trkpt lat="46.49886634" lon="6.39518215"><ele>484.641846</ele><time>2009-05-17T10:43:14Z</time></trkpt>
<trkpt lat="46.49869837" lon="6.39551383"><ele>485.603027</ele><time>2009-05-17T10:43:20Z</time></trkpt>
<trkpt lat="46.49819537" lon="6.39598858"><ele>489.929077</ele><time>2009-05-17T10:43:33Z</time></trkpt>
<trkpt lat="46.49809269" lon="6.39610978"><ele>490.890381</ele><time>2009-05-17T10:43:36Z</time></trkpt>
<trkpt lat="46.49776655" lon="6.39643298"><ele>491.851685</ele><time>2009-05-17T10:43:45Z</time></trkpt>
<trkpt lat="46.49768139" lon="6.39657246"><ele>492.332397</ele><time>2009-05-17T10:43:48Z</time></trkpt>
<trkpt lat="46.49761174" lon="6.39680732"><ele>493.293579</ele><time>2009-05-17T10:43:52Z</time></trkpt>
<trkpt lat="46.49754485" lon="6.39754208"><ele>497.138916</ele><time>2009-05-17T10:44:03Z</time></trkpt>
<trkpt lat="46.49754125" lon="6.39761006"><ele>497.138916</ele><time>2009-05-17T10:44:04Z</time></trkpt>
<trkpt lat="46.49750135" lon="6.39832403"><ele>500.50354</ele><time>2009-05-17T10:44:15Z</time></trkpt>
<trkpt lat="46.49749682" lon="6.39838655"><ele>500.50354</ele><time>2009-05-17T10:44:16Z</time></trkpt>
<trkpt lat="46.49743622" lon="6.39925282"><ele>503.387451</ele><time>2009-05-17T10:44:30Z</time></trkpt>
<trkpt lat="46.49741309" lon="6.39966865"><ele>504.829468</ele><time>2009-05-17T10:44:37Z</time></trkpt>
<trkpt lat="46.49752666" lon="6.40006579"><ele>505.310181</ele><time>2009-05-17T10:44:44Z</time></trkpt>
<trkpt lat="46.49805145" lon="6.40064414"><ele>508.674683</ele><time>2009-05-17T10:44:59Z</time></trkpt>
<trkpt lat="46.49845672" lon="6.40087338"><ele>512.039429</ele><time>2009-05-17T10:45:09Z</time></trkpt>
<trkpt lat="46.49897514" lon="6.40090347"><ele>514.92334</ele><time>2009-05-17T10:45:21Z</time></trkpt>
<trkpt lat="46.49941728" lon="6.40086114"><ele>516.845947</ele><time>2009-05-17T10:45:31Z</time></trkpt>
<trkpt lat="46.49960018" lon="6.40092175"><ele>517.807251</ele><time>2009-05-17T10:45:35Z</time></trkpt>
<trkpt lat="46.49978156" lon="6.40104236"><ele>518.287842</ele><time>2009-05-17T10:45:39Z</time></trkpt>
<trkpt lat="46.50056996" lon="6.40211684"><ele>521.652588</ele><time>2009-05-17T10:45:58Z</time></trkpt>
<trkpt lat="46.50086459" lon="6.40311948"><ele>525.017212</ele><time>2009-05-17T10:46:10Z</time></trkpt>
<trkpt lat="46.50124739" lon="6.40449612"><ele>525.497803</ele><time>2009-05-17T10:46:25Z</time></trkpt>
<trkpt lat="46.50157269" lon="6.40558862"><ele>524.055786</ele><time>2009-05-17T10:46:37Z</time></trkpt>
<trkpt lat="46.50160815" lon="6.40576003"><ele>524.536499</ele><time>2009-05-17T10:46:39Z</time></trkpt>
<trkpt lat="46.50203495" lon="6.40691782"><ele>525.017212</ele><time>2009-05-17T10:46:53Z</time></trkpt>
<trkpt lat="46.50259277" lon="6.40808484"><ele>524.055786</ele><time>2009-05-17T10:47:05Z</time></trkpt>
<trkpt lat="46.50306165" lon="6.40884398"><ele>519.249268</ele><time>2009-05-17T10:47:13Z</time></trkpt>
<trkpt lat="46.50312007" lon="6.40893744"><ele>520.210571</ele><time>2009-05-17T10:47:14Z</time></trkpt>
<trkpt lat="46.50407176" lon="6.41042230"><ele>524.055786</ele><time>2009-05-17T10:47:31Z</time></trkpt>
<trkpt lat="46.50417728" lon="6.41058734"><ele>525.497803</ele><time>2009-05-17T10:47:33Z</time></trkpt>
<trkpt lat="46.50538344" lon="6.41244192"><ele>524.536499</ele><time>2009-05-17T10:47:54Z</time></trkpt>
<trkpt lat="46.50682714" lon="6.41465306"><ele>523.575195</ele><time>2009-05-17T10:48:17Z</time></trkpt>
<trkpt lat="46.50746517" lon="6.41534650"><ele>521.652588</ele><time>2009-05-17T10:48:25Z</time></trkpt>
<trkpt lat="46.50837528" lon="6.41575755"><ele>517.807251</ele><time>2009-05-17T10:48:34Z</time></trkpt>
<trkpt lat="46.50848659" lon="6.41577565"><ele>518.287842</ele><time>2009-05-17T10:48:35Z</time></trkpt>
<trkpt lat="46.50895178" lon="6.41579015"><ele>515.404053</ele><time>2009-05-17T10:48:39Z</time></trkpt>
<trkpt lat="46.50932042" lon="6.41575327"><ele>512.039429</ele><time>2009-05-17T10:48:42Z</time></trkpt>
<trkpt lat="46.50983725" lon="6.41568823"><ele>507.713501</ele><time>2009-05-17T10:48:46Z</time></trkpt>
<trkpt lat="46.50997085" lon="6.41567348"><ele>507.713501</ele><time>2009-05-17T10:48:47Z</time></trkpt>
<trkpt lat="46.51052364" lon="6.41565805"><ele>504.348877</ele><time>2009-05-17T10:48:51Z</time></trkpt>
<trkpt lat="46.51080703" lon="6.41571446"><ele>502.906738</ele><time>2009-05-17T10:48:53Z</time></trkpt>
<trkpt lat="46.51163240" lon="6.41644780"><ele>500.50354</ele><time>2009-05-17T10:49:00Z</time></trkpt>
<trkpt lat="46.51187866" lon="6.41699237"><ele>501.945557</ele><time>2009-05-17T10:49:04Z</time></trkpt>
<trkpt lat="46.51210614" lon="6.41771237"><ele>505.790894</ele><time>2009-05-17T10:49:10Z</time></trkpt>
<trkpt lat="46.51240395" lon="6.41851159"><ele>509.636108</ele><time>2009-05-17T10:49:19Z</time></trkpt>
<trkpt lat="46.51243597" lon="6.41858535"><ele>509.636108</ele><time>2009-05-17T10:49:20Z</time></trkpt>
<trkpt lat="46.51253538" lon="6.41879297"><ele>511.078003</ele><time>2009-05-17T10:49:23Z</time></trkpt>
<trkpt lat="46.51283864" lon="6.41933637"><ele>514.442627</ele><time>2009-05-17T10:49:32Z</time></trkpt>
<trkpt lat="46.51317987" lon="6.41985722"><ele>517.807251</ele><time>2009-05-17T10:49:42Z</time></trkpt>
<trkpt lat="46.51350064" lon="6.42034387"><ele>520.691284</ele><time>2009-05-17T10:49:52Z</time></trkpt>
<trkpt lat="46.51394882" lon="6.42102239"><ele>524.055786</ele><time>2009-05-17T10:50:07Z</time></trkpt>
<trkpt lat="46.51428393" lon="6.42149655"><ele>527.42041</ele><time>2009-05-17T10:50:18Z</time></trkpt>
<trkpt lat="46.51492297" lon="6.42230004"><ele>531.265747</ele><time>2009-05-17T10:50:36Z</time></trkpt>
<trkpt lat="46.51571095" lon="6.42318089"><ele>533.188354</ele><time>2009-05-17T10:50:53Z</time></trkpt>
<trkpt lat="46.51693923" lon="6.42455318"><ele>532.227051</ele><time>2009-05-17T10:51:14Z</time></trkpt>
<trkpt lat="46.51774608" lon="6.42580795"><ele>528.381836</ele><time>2009-05-17T10:51:27Z</time></trkpt>
<trkpt lat="46.51802595" lon="6.42640868"><ele>525.978394</ele><time>2009-05-17T10:51:32Z</time></trkpt>
<trkpt lat="46.51837723" lon="6.42737403"><ele>522.613892</ele><time>2009-05-17T10:51:39Z</time></trkpt>
<trkpt lat="46.51869927" lon="6.42843006"><ele>522.133179</ele><time>2009-05-17T10:51:46Z</time></trkpt>
<trkpt lat="46.51935825" lon="6.43019454"><ele>520.691284</ele><time>2009-05-17T10:51:59Z</time></trkpt>
<trkpt lat="46.51990048" lon="6.43129265"><ele>519.729858</ele><time>2009-05-17T10:52:08Z</time></trkpt>
<trkpt lat="46.52074940" lon="6.43221047"><ele>518.768555</ele><time>2009-05-17T10:52:18Z</time></trkpt>
<trkpt lat="46.52109842" lon="6.43270592"><ele>518.287842</ele><time>2009-05-17T10:52:24Z</time></trkpt>
<trkpt lat="46.52140612" lon="6.43316768"><ele>518.287842</ele><time>2009-05-17T10:52:29Z</time></trkpt>
<trkpt lat="46.52232192" lon="6.43555569"><ele>514.92334</ele><time>2009-05-17T10:52:48Z</time></trkpt>
<trkpt lat="46.52309725" lon="6.43756642"><ele>515.884644</ele><time>2009-05-17T10:53:04Z</time></trkpt>
<trkpt lat="46.52369170" lon="6.43909578"><ele>516.365234</ele><time>2009-05-17T10:53:17Z</time></trkpt>
<trkpt lat="46.52466978" lon="6.44161396"><ele>514.442627</ele><time>2009-05-17T10:53:38Z</time></trkpt>
<trkpt lat="46.52564585" lon="6.44407782"><ele>511.558716</ele><time>2009-05-17T10:53:59Z</time></trkpt>
<trkpt lat="46.52582657" lon="6.44454067"><ele>511.078003</ele><time>2009-05-17T10:54:03Z</time></trkpt>
<trkpt lat="46.52634658" lon="6.44587875"><ele>508.194092</ele><time>2009-05-17T10:54:16Z</time></trkpt>
<trkpt lat="46.52625723" lon="6.44606676"><ele>508.674683</ele><time>2009-05-17T10:54:22Z</time></trkpt>
<trkpt lat="46.52590167" lon="6.44661946"><ele>512.039429</ele><time>2009-05-17T10:54:33Z</time></trkpt>
<trkpt lat="46.52562875" lon="6.44704225"><ele>513.962036</ele><time>2009-05-17T10:54:41Z</time></trkpt>
<trkpt lat="46.52496558" lon="6.44808034"><ele>515.884644</ele><time>2009-05-17T10:54:58Z</time></trkpt>
<trkpt lat="46.52425068" lon="6.44915214"><ele>518.287842</ele><time>2009-05-17T10:55:14Z</time></trkpt>
<trkpt lat="46.52415530" lon="6.44926244"><ele>517.32666</ele><time>2009-05-17T10:55:16Z</time></trkpt>
<trkpt lat="46.52341409" lon="6.45029493"><ele>521.171997</ele><time>2009-05-17T10:55:33Z</time></trkpt>
<trkpt lat="46.52241915" lon="6.45151198"><ele>521.171997</ele><time>2009-05-17T10:55:53Z</time></trkpt>
<trkpt lat="46.52138424" lon="6.45264052"><ele>517.32666</ele><time>2009-05-17T10:56:09Z</time></trkpt>
<trkpt lat="46.52039266" lon="6.45409076"><ele>514.442627</ele><time>2009-05-17T10:56:25Z</time></trkpt>
<trkpt lat="46.51942866" lon="6.45516356"><ele>512.52002</ele><time>2009-05-17T10:56:39Z</time></trkpt>
<trkpt lat="46.51924593" lon="6.45524402"><ele>512.52002</ele><time>2009-05-17T10:56:41Z</time></trkpt>
<trkpt lat="46.51883572" lon="6.45583553"><ele>507.713501</ele><time>2009-05-17T10:56:47Z</time></trkpt>
<trkpt lat="46.51863758" lon="6.45618162"><ele>505.790894</ele><time>2009-05-17T10:56:50Z</time></trkpt>
<trkpt lat="46.51813198" lon="6.45705342"><ele>503.868164</ele><time>2009-05-17T10:56:58Z</time></trkpt>
<trkpt lat="46.51776720" lon="6.45738878"><ele>500.984131</ele><time>2009-05-17T10:57:02Z</time></trkpt>
<trkpt lat="46.51744818" lon="6.45757545"><ele>499.542236</ele><time>2009-05-17T10:57:05Z</time></trkpt>
<trkpt lat="46.51712506" lon="6.45773378"><ele>496.658325</ele><time>2009-05-17T10:57:08Z</time></trkpt>
<trkpt lat="46.51647094" lon="6.45790016"><ele>493.774292</ele><time>2009-05-17T10:57:14Z</time></trkpt>
<trkpt lat="46.51603952" lon="6.45800234"><ele>490.40979</ele><time>2009-05-17T10:57:18Z</time></trkpt>
<trkpt lat="46.51593248" lon="6.45803335"><ele>490.40979</ele><time>2009-05-17T10:57:19Z</time></trkpt>
<trkpt lat="46.51551238" lon="6.45821046"><ele>488.487183</ele><time>2009-05-17T10:57:23Z</time></trkpt>
<trkpt lat="46.51510687" lon="6.45846846"><ele>485.603027</ele><time>2009-05-17T10:57:27Z</time></trkpt>
<trkpt lat="46.51480948" lon="6.45869125"><ele>484.161133</ele><time>2009-05-17T10:57:30Z</time></trkpt>
<trkpt lat="46.51412568" lon="6.45919416"><ele>480.796631</ele><time>2009-05-17T10:57:37Z</time></trkpt>
<trkpt lat="46.51353618" lon="6.45958878"><ele>476.951294</ele><time>2009-05-17T10:57:43Z</time></trkpt>
<trkpt lat="46.51333770" lon="6.45971023"><ele>476.470581</ele><time>2009-05-17T10:57:45Z</time></trkpt>
<trkpt lat="46.51263379" lon="6.46012975"><ele>473.106079</ele><time>2009-05-17T10:57:52Z</time></trkpt>
<trkpt lat="46.51243203" lon="6.46025590"><ele>472.144653</ele><time>2009-05-17T10:57:54Z</time></trkpt>
<trkpt lat="46.51182527" lon="6.46062604"><ele>468.780029</ele><time>2009-05-17T10:58:00Z</time></trkpt>
<trkpt lat="46.51154405" lon="6.46080298"><ele>466.857422</ele><time>2009-05-17T10:58:03Z</time></trkpt>
<trkpt lat="46.51109093" lon="6.46107498"><ele>464.934814</ele><time>2009-05-17T10:58:08Z</time></trkpt>
<trkpt lat="46.51072590" lon="6.46129617"><ele>462.531372</ele><time>2009-05-17T10:58:12Z</time></trkpt>
<trkpt lat="46.51016389" lon="6.46162936"><ele>458.205566</ele><time>2009-05-17T10:58:18Z</time></trkpt>
<trkpt lat="46.50927834" lon="6.46217225"><ele>454.360229</ele><time>2009-05-17T10:58:27Z</time></trkpt>
<trkpt lat="46.50917843" lon="6.46223268"><ele>454.84082</ele><time>2009-05-17T10:58:28Z</time></trkpt>
<trkpt lat="46.50890384" lon="6.46239630"><ele>451.476318</ele><time>2009-05-17T10:58:31Z</time></trkpt>
<trkpt lat="46.50886369" lon="6.46272479"><ele>448.592407</ele><time>2009-05-17T10:58:35Z</time></trkpt>
<trkpt lat="46.50922554" lon="6.46389289"><ele>452.437622</ele><time>2009-05-17T10:58:48Z</time></trkpt>
<trkpt lat="46.50930592" lon="6.46418558"><ele>451.957031</ele><time>2009-05-17T10:58:51Z</time></trkpt>
<trkpt lat="46.50971320" lon="6.46554697"><ele>450.515015</ele><time>2009-05-17T10:59:04Z</time></trkpt>
<trkpt lat="46.51007429" lon="6.46676838"><ele>449.072998</ele><time>2009-05-17T10:59:18Z</time></trkpt>
<trkpt lat="46.51011175" lon="6.46686419"><ele>448.592407</ele><time>2009-05-17T10:59:19Z</time></trkpt>
<trkpt lat="46.51074626" lon="6.46756844"><ele>445.708374</ele><time>2009-05-17T10:59:28Z</time></trkpt>
<trkpt lat="46.51091977" lon="6.46773809"><ele>442.343872</ele><time>2009-05-17T10:59:30Z</time></trkpt>
<trkpt lat="46.51148697" lon="6.46829523"><ele>438.979126</ele><time>2009-05-17T10:59:36Z</time></trkpt>
<trkpt lat="46.51186667" lon="6.46866479"><ele>437.537109</ele><time>2009-05-17T10:59:40Z</time></trkpt>
<trkpt lat="46.51311876" lon="6.46987564"><ele>436.095215</ele><time>2009-05-17T10:59:55Z</time></trkpt>
<trkpt lat="46.51374925" lon="6.47048199"><ele>436.095215</ele><time>2009-05-17T11:00:04Z</time></trkpt>
<trkpt lat="46.51379158" lon="6.47059279"><ele>435.133911</ele><time>2009-05-17T11:00:06Z</time></trkpt>
<trkpt lat="46.51374095" lon="6.47068064"><ele>434.65332</ele><time>2009-05-17T11:00:08Z</time></trkpt>
<trkpt lat="46.51302463" lon="6.47124658"><ele>434.65332</ele><time>2009-05-17T11:00:20Z</time></trkpt>
<trkpt lat="46.51157943" lon="6.47244084"><ele>433.211304</ele><time>2009-05-17T11:00:41Z</time></trkpt>
<trkpt lat="46.51160558" lon="6.47273856"><ele>432.25</ele><time>2009-05-17T11:00:46Z</time></trkpt>
<trkpt lat="46.51256380" lon="6.47376074"><ele>433.211304</ele><time>2009-05-17T11:01:02Z</time></trkpt>
<trkpt lat="46.51361782" lon="6.47495063"><ele>434.65332</ele><time>2009-05-17T11:01:19Z</time></trkpt>
<trkpt lat="46.51505909" lon="6.47654587"><ele>434.65332</ele><time>2009-05-17T11:01:43Z</time></trkpt>
<trkpt lat="46.51534483" lon="6.47665484"><ele>433.211304</ele><time>2009-05-17T11:01:47Z</time></trkpt>
<trkpt lat="46.51603072" lon="6.47666540"><ele>431.769165</ele><time>2009-05-17T11:01:55Z</time></trkpt>
<trkpt lat="46.51726353" lon="6.47713143"><ele>433.211304</ele><time>2009-05-17T11:02:10Z</time></trkpt>
<trkpt lat="46.51762043" lon="6.47732254"><ele>433.211304</ele><time>2009-05-17T11:02:15Z</time></trkpt>
<trkpt lat="46.51761364" lon="6.47765354"><ele>432.730713</ele><time>2009-05-17T11:02:20Z</time></trkpt>
<trkpt lat="46.51705038" lon="6.47840255"><ele>427.92395</ele><time>2009-05-17T11:02:28Z</time></trkpt>
<trkpt lat="46.51697662" lon="6.47850615"><ele>427.92395</ele><time>2009-05-17T11:02:29Z</time></trkpt>
<trkpt lat="46.51629793" lon="6.47955280"><ele>426.482056</ele><time>2009-05-17T11:02:40Z</time></trkpt>
<trkpt lat="46.51607607" lon="6.48032326"><ele>428.885376</ele><time>2009-05-17T11:02:48Z</time></trkpt>
<trkpt lat="46.51544969" lon="6.48141769"><ele>427.443359</ele><time>2009-05-17T11:03:01Z</time></trkpt>
<trkpt lat="46.51473328" lon="6.48280615"><ele>424.078735</ele><time>2009-05-17T11:03:14Z</time></trkpt>
<trkpt lat="46.51461259" lon="6.48304990"><ele>423.598022</ele><time>2009-05-17T11:03:16Z</time></trkpt>
<trkpt lat="46.51426239" lon="6.48369052"><ele>420.714111</ele><time>2009-05-17T11:03:21Z</time></trkpt>
<trkpt lat="46.51403960" lon="6.48409034"><ele>417.8302</ele><time>2009-05-17T11:03:24Z</time></trkpt>
<trkpt lat="46.51388680" lon="6.48435043"><ele>416.388184</ele><time>2009-05-17T11:03:26Z</time></trkpt>
<trkpt lat="46.51300636" lon="6.48564217"><ele>413.504272</ele><time>2009-05-17T11:03:37Z</time></trkpt>
<trkpt lat="46.51285767" lon="6.48585523"><ele>412.062256</ele><time>2009-05-17T11:03:39Z</time></trkpt>
<trkpt lat="46.51263647" lon="6.48616595"><ele>410.620239</ele><time>2009-05-17T11:03:42Z</time></trkpt>
<trkpt lat="46.51197975" lon="6.48712836"><ele>407.736328</ele><time>2009-05-17T11:03:51Z</time></trkpt>
<trkpt lat="46.51119906" lon="6.48887205"><ele>404.852295</ele><time>2009-05-17T11:04:05Z</time></trkpt>
<trkpt lat="46.51094307" lon="6.49001559"><ele>401.00708</ele><time>2009-05-17T11:04:13Z</time></trkpt>
<trkpt lat="46.51082078" lon="6.49094649"><ele>397.642456</ele><time>2009-05-17T11:04:19Z</time></trkpt>
<trkpt lat="46.51076194" lon="6.49141956"><ele>393.316528</ele><time>2009-05-17T11:04:22Z</time></trkpt>
<trkpt lat="46.51074593" lon="6.49154345"><ele>392.835938</ele><time>2009-05-17T11:04:23Z</time></trkpt>
<trkpt lat="46.51073135" lon="6.49164545"><ele>391.874512</ele><time>2009-05-17T11:04:24Z</time></trkpt>
<trkpt lat="46.51080569" lon="6.49201593"><ele>390.913208</ele><time>2009-05-17T11:04:28Z</time></trkpt>
<trkpt lat="46.51097987" lon="6.49230008"><ele>389.471191</ele><time>2009-05-17T11:04:31Z</time></trkpt>
<trkpt lat="46.51119679" lon="6.49270057"><ele>387.067993</ele><time>2009-05-17T11:04:35Z</time></trkpt>
<trkpt lat="46.51115455" lon="6.49302763"><ele>383.703247</ele><time>2009-05-17T11:04:39Z</time></trkpt>
<trkpt lat="46.51116352" lon="6.49336567"><ele>383.222656</ele><time>2009-05-17T11:04:43Z</time></trkpt>
<trkpt lat="46.51052892" lon="6.49392759"><ele>383.703247</ele><time>2009-05-17T11:04:47Z</time></trkpt>
<trkpt lat="46.51030613" lon="6.49437720"><ele>384.184082</ele><time>2009-05-17T11:04:51Z</time></trkpt>
<trkpt lat="46.50955210" lon="6.49514079"><ele>383.703247</ele><time>2009-05-17T11:05:02Z</time></trkpt>
<trkpt lat="46.50895908" lon="6.49596046"><ele>383.222656</ele><time>2009-05-17T11:05:12Z</time></trkpt>
<trkpt lat="46.50869857" lon="6.49644376"><ele>382.261353</ele><time>2009-05-17T11:05:18Z</time></trkpt>
<trkpt lat="46.50862774" lon="6.49676772"><ele>381.300049</ele><time>2009-05-17T11:05:21Z</time></trkpt>
<trkpt lat="46.50840444" lon="6.49717206"><ele>381.300049</ele><time>2009-05-17T11:05:27Z</time></trkpt>
<trkpt lat="46.50842842" lon="6.49757649"><ele>380.819458</ele><time>2009-05-17T11:05:32Z</time></trkpt>
<trkpt lat="46.50934456" lon="6.49864879"><ele>381.78064</ele><time>2009-05-17T11:05:49Z</time></trkpt>
<trkpt lat="46.51028057" lon="6.49958756"><ele>381.78064</ele><time>2009-05-17T11:06:04Z</time></trkpt>
<trkpt lat="46.51039305" lon="6.49970910"><ele>381.78064</ele><time>2009-05-17T11:06:06Z</time></trkpt>
<trkpt lat="46.51083075" lon="6.49999140"><ele>382.261353</ele><time>2009-05-17T11:06:14Z</time></trkpt>
<trkpt lat="46.51110535" lon="6.50000682"><ele>382.742065</ele><time>2009-05-17T11:06:18Z</time></trkpt>
<trkpt lat="46.51200263" lon="6.50016323"><ele>382.742065</ele><time>2009-05-17T11:06:29Z</time></trkpt>
<trkpt lat="46.51281819" lon="6.50106562"><ele>381.78064</ele><time>2009-05-17T11:06:41Z</time></trkpt>
<trkpt lat="46.51393793" lon="6.50238259"><ele>382.742065</ele><time>2009-05-17T11:06:58Z</time></trkpt>
<trkpt lat="46.51519815" lon="6.50389787"><ele>382.742065</ele><time>2009-05-17T11:07:17Z</time></trkpt>
<trkpt lat="46.51583827" lon="6.50525968"><ele>383.703247</ele><time>2009-05-17T11:07:31Z</time></trkpt>
<trkpt lat="46.51657789" lon="6.50734962"><ele>384.664795</ele><time>2009-05-17T11:07:51Z</time></trkpt>
<trkpt lat="46.51681728" lon="6.50934150"><ele>384.664795</ele><time>2009-05-17T11:08:08Z</time></trkpt>
<trkpt lat="46.51702624" lon="6.51115182"><ele>385.145386</ele><time>2009-05-17T11:08:23Z</time></trkpt>
<trkpt lat="46.51728373" lon="6.51344134"><ele>384.184082</ele><time>2009-05-17T11:08:43Z</time></trkpt>
<trkpt lat="46.51752194" lon="6.51536783"><ele>386.587402</ele><time>2009-05-17T11:09:01Z</time></trkpt>
<trkpt lat="46.51767609" lon="6.51665219"><ele>389.951904</ele><time>2009-05-17T11:09:15Z</time></trkpt>
<trkpt lat="46.51782210" lon="6.51824433"><ele>393.316528</ele><time>2009-05-17T11:09:34Z</time></trkpt>
<trkpt lat="46.51785554" lon="6.51946507"><ele>396.200562</ele><time>2009-05-17T11:09:49Z</time></trkpt>
<trkpt lat="46.51775513" lon="6.52150372"><ele>399.565063</ele><time>2009-05-17T11:10:13Z</time></trkpt>
<trkpt lat="46.51771976" lon="6.52223303"><ele>401.487793</ele><time>2009-05-17T11:10:22Z</time></trkpt>
<trkpt lat="46.51767525" lon="6.52316677"><ele>404.371704</ele><time>2009-05-17T11:10:35Z</time></trkpt>
<trkpt lat="46.51763468" lon="6.52400597"><ele>408.217041</ele><time>2009-05-17T11:10:47Z</time></trkpt>
<trkpt lat="46.51752094" lon="6.52532838"><ele>410.620239</ele><time>2009-05-17T11:11:05Z</time></trkpt>
<trkpt lat="46.51720243" lon="6.52690594"><ele>410.139648</ele><time>2009-05-17T11:11:21Z</time></trkpt>
<trkpt lat="46.51663958" lon="6.52984698"><ele>409.659058</ele><time>2009-05-17T11:11:47Z</time></trkpt>
<trkpt lat="46.51606995" lon="6.53261192"><ele>410.139648</ele><time>2009-05-17T11:12:11Z</time></trkpt>
<trkpt lat="46.51554247" lon="6.53502842"><ele>409.659058</ele><time>2009-05-17T11:12:32Z</time></trkpt>
<trkpt lat="46.51531792" lon="6.53594792"><ele>407.255615</ele><time>2009-05-17T11:12:39Z</time></trkpt>
<trkpt lat="46.51516680" lon="6.53651428"><ele>405.333008</ele><time>2009-05-17T11:12:43Z</time></trkpt>
<trkpt lat="46.51475114" lon="6.53804130"><ele>401.968506</ele><time>2009-05-17T11:12:54Z</time></trkpt>
<trkpt lat="46.51456439" lon="6.53872183"><ele>401.487793</ele><time>2009-05-17T11:12:59Z</time></trkpt>
<trkpt lat="46.51440622" lon="6.53927243"><ele>400.526489</ele><time>2009-05-17T11:13:03Z</time></trkpt>
<trkpt lat="46.51423339" lon="6.53978147"><ele>398.123169</ele><time>2009-05-17T11:13:07Z</time></trkpt>
<trkpt lat="46.51385436" lon="6.54122449"><ele>395.239136</ele><time>2009-05-17T11:13:17Z</time></trkpt>
<trkpt lat="46.51354708" lon="6.54228573"><ele>391.874512</ele><time>2009-05-17T11:13:24Z</time></trkpt>
<trkpt lat="46.51343996" lon="6.54269896"><ele>393.316528</ele><time>2009-05-17T11:13:27Z</time></trkpt>
<trkpt lat="46.51326503" lon="6.54353312"><ele>397.161743</ele><time>2009-05-17T11:13:34Z</time></trkpt>
<trkpt lat="46.51325229" lon="6.54364175"><ele>397.642456</ele><time>2009-05-17T11:13:35Z</time></trkpt>
<trkpt lat="46.51324625" lon="6.54506324"><ele>399.565063</ele><time>2009-05-17T11:13:50Z</time></trkpt>
<trkpt lat="46.51331012" lon="6.54565525"><ele>401.487793</ele><time>2009-05-17T11:13:59Z</time></trkpt>
<trkpt lat="46.51348924" lon="6.54709283"><ele>404.852295</ele><time>2009-05-17T11:14:16Z</time></trkpt>
<trkpt lat="46.51372117" lon="6.54915277"><ele>406.294312</ele><time>2009-05-17T11:14:38Z</time></trkpt>
<trkpt lat="46.51381974" lon="6.55164697"><ele>409.178345</ele><time>2009-05-17T11:15:03Z</time></trkpt>
<trkpt lat="46.51379099" lon="6.55449799"><ele>410.620239</ele><time>2009-05-17T11:15:30Z</time></trkpt>
<trkpt lat="46.51376668" lon="6.55553768"><ele>413.504272</ele><time>2009-05-17T11:15:40Z</time></trkpt>
<trkpt lat="46.51389736" lon="6.55722748"><ele>413.984863</ele><time>2009-05-17T11:15:56Z</time></trkpt>
<trkpt lat="46.51398696" lon="6.55759678"><ele>412.062256</ele><time>2009-05-17T11:15:59Z</time></trkpt>
<trkpt lat="46.51446607" lon="6.55896613"><ele>408.697632</ele><time>2009-05-17T11:16:10Z</time></trkpt>
<trkpt lat="46.51535572" lon="6.56109229"><ele>405.813721</ele><time>2009-05-17T11:16:28Z</time></trkpt>
<trkpt lat="46.51650388" lon="6.56335934"><ele>403.4104</ele><time>2009-05-17T11:16:49Z</time></trkpt>
<trkpt lat="46.51669616" lon="6.56362228"><ele>404.371704</ele><time>2009-05-17T11:16:52Z</time></trkpt>
<trkpt lat="46.51692012" lon="6.56442828"><ele>404.371704</ele><time>2009-05-17T11:16:59Z</time></trkpt>
<trkpt lat="46.51708206" lon="6.56611648"><ele>404.852295</ele><time>2009-05-17T11:17:13Z</time></trkpt>
<trkpt lat="46.51729555" lon="6.56904814"><ele>407.736328</ele><time>2009-05-17T11:17:40Z</time></trkpt>
<trkpt lat="46.51764633" lon="6.57112610"><ele>405.813721</ele><time>2009-05-17T11:17:59Z</time></trkpt>
<trkpt lat="46.51821823" lon="6.57293625"><ele>404.371704</ele><time>2009-05-17T11:18:15Z</time></trkpt>
<trkpt lat="46.51898978" lon="6.57546155"><ele>402.449097</ele><time>2009-05-17T11:18:36Z</time></trkpt>
<trkpt lat="46.51947417" lon="6.57735972"><ele>399.565063</ele><time>2009-05-17T11:18:51Z</time></trkpt>
<trkpt lat="46.51955900" lon="6.57775668"><ele>398.123169</ele><time>2009-05-17T11:18:54Z</time></trkpt>
<trkpt lat="46.51970468" lon="6.57845096"><ele>395.719849</ele><time>2009-05-17T11:18:59Z</time></trkpt>
<trkpt lat="46.51983099" lon="6.57917758"><ele>393.316528</ele><time>2009-05-17T11:19:04Z</time></trkpt>
<trkpt lat="46.51990282" lon="6.57961453"><ele>391.874512</ele><time>2009-05-17T11:19:07Z</time></trkpt>
<trkpt lat="46.52031605" lon="6.58203682"><ele>388.990601</ele><time>2009-05-17T11:19:25Z</time></trkpt>
<trkpt lat="46.52063666" lon="6.58364329"><ele>386.587402</ele><time>2009-05-17T11:19:37Z</time></trkpt>
<trkpt lat="46.52105316" lon="6.58536519"><ele>388.029297</ele><time>2009-05-17T11:19:51Z</time></trkpt>
<trkpt lat="46.52107453" lon="6.58574648"><ele>387.548584</ele><time>2009-05-17T11:19:54Z</time></trkpt>
<trkpt lat="46.52073448" lon="6.58725782"><ele>387.067993</ele><time>2009-05-17T11:20:07Z</time></trkpt>
<trkpt lat="46.52014347" lon="6.58955849"><ele>385.625977</ele><time>2009-05-17T11:20:27Z</time></trkpt>
<trkpt lat="46.51974348" lon="6.59103597"><ele>385.145386</ele><time>2009-05-17T11:20:40Z</time></trkpt>
<trkpt lat="46.51940368" lon="6.59233239"><ele>385.145386</ele><time>2009-05-17T11:20:52Z</time></trkpt>
<trkpt lat="46.51891854" lon="6.59352338"><ele>386.106689</ele><time>2009-05-17T11:21:04Z</time></trkpt>
<trkpt lat="46.51858737" lon="6.59432335"><ele>385.145386</ele><time>2009-05-17T11:21:13Z</time></trkpt>
<trkpt lat="46.51877990" lon="6.59484839"><ele>385.625977</ele><time>2009-05-17T11:21:19Z</time></trkpt>
<trkpt lat="46.51894804" lon="6.59505576"><ele>386.106689</ele><time>2009-05-17T11:21:22Z</time></trkpt>
<trkpt lat="46.51898333" lon="6.59572807"><ele>386.587402</ele><time>2009-05-17T11:21:29Z</time></trkpt>
<trkpt lat="46.51835326" lon="6.59708309"><ele>387.067993</ele><time>2009-05-17T11:21:44Z</time></trkpt>
<trkpt lat="46.51779394" lon="6.59808649"><ele>386.587402</ele><time>2009-05-17T11:21:57Z</time></trkpt>
<trkpt lat="46.51749764" lon="6.59914764"><ele>388.990601</ele><time>2009-05-17T11:22:11Z</time></trkpt>
<trkpt lat="46.51742128" lon="6.59975474"><ele>390.432617</ele><time>2009-05-17T11:22:18Z</time></trkpt>
<trkpt lat="46.51712967" lon="6.60139063"><ele>390.913208</ele><time>2009-05-17T11:22:35Z</time></trkpt>
<trkpt lat="46.51683773" lon="6.60209413"><ele>390.432617</ele><time>2009-05-17T11:22:42Z</time></trkpt>
<trkpt lat="46.51623147" lon="6.60246025"><ele>388.990601</ele><time>2009-05-17T11:22:50Z</time></trkpt>
<trkpt lat="46.51581287" lon="6.60231482"><ele>388.990601</ele><time>2009-05-17T11:22:55Z</time></trkpt>
<trkpt lat="46.51565219" lon="6.60228297"><ele>388.51001</ele><time>2009-05-17T11:22:57Z</time></trkpt>
<trkpt lat="46.51536637" lon="6.60269838"><ele>386.587402</ele><time>2009-05-17T11:23:03Z</time></trkpt>
<trkpt lat="46.51538305" lon="6.60281572"><ele>387.067993</ele><time>2009-05-17T11:23:04Z</time></trkpt>
<trkpt lat="46.51542823" lon="6.60316743"><ele>387.067993</ele><time>2009-05-17T11:23:07Z</time></trkpt>
<trkpt lat="46.51519873" lon="6.60415867"><ele>387.548584</ele><time>2009-05-17T11:23:16Z</time></trkpt>
<trkpt lat="46.51481199" lon="6.60479025"><ele>386.106689</ele><time>2009-05-17T11:23:23Z</time></trkpt>
<trkpt lat="46.51463337" lon="6.60517992"><ele>386.587402</ele><time>2009-05-17T11:23:27Z</time></trkpt>
<trkpt lat="46.51448736" lon="6.60562752"><ele>386.587402</ele><time>2009-05-17T11:23:31Z</time></trkpt>
<trkpt lat="46.51441217" lon="6.60664458"><ele>386.587402</ele><time>2009-05-17T11:23:39Z</time></trkpt>
<trkpt lat="46.51483018" lon="6.60760037"><ele>386.106689</ele><time>2009-05-17T11:23:48Z</time></trkpt>
<trkpt lat="46.51490352" lon="6.60765376"><ele>387.067993</ele><time>2009-05-17T11:23:49Z</time></trkpt>
<trkpt lat="46.51525363" lon="6.60787764"><ele>386.587402</ele><time>2009-05-17T11:23:54Z</time></trkpt>
<trkpt lat="46.51543334" lon="6.60845557"><ele>387.067993</ele><time>2009-05-17T11:24:02Z</time></trkpt>
<trkpt lat="46.51489346" lon="6.61022759"><ele>387.548584</ele><time>2009-05-17T11:24:19Z</time></trkpt>
<trkpt lat="46.51447353" lon="6.61099814"><ele>387.067993</ele><time>2009-05-17T11:24:27Z</time></trkpt>
<trkpt lat="46.51425250" lon="6.61121280"><ele>387.067993</ele><time>2009-05-17T11:24:30Z</time></trkpt>
<trkpt lat="46.51360500" lon="6.61224025"><ele>386.587402</ele><time>2009-05-17T11:24:42Z</time></trkpt>
<trkpt lat="46.51311968" lon="6.61309848"><ele>385.145386</ele><time>2009-05-17T11:24:51Z</time></trkpt>
<trkpt lat="46.51256430" lon="6.61501827"><ele>385.625977</ele><time>2009-05-17T11:25:07Z</time></trkpt>
<trkpt lat="46.51190188" lon="6.61664955"><ele>385.625977</ele><time>2009-05-17T11:25:22Z</time></trkpt>
<trkpt lat="46.51172284" lon="6.61690420"><ele>386.106689</ele><time>2009-05-17T11:25:25Z</time></trkpt>
<trkpt lat="46.51107039" lon="6.61795612"><ele>385.145386</ele><time>2009-05-17T11:25:37Z</time></trkpt>
<trkpt lat="46.51027353" lon="6.61913202"><ele>385.625977</ele><time>2009-05-17T11:25:51Z</time></trkpt>
<trkpt lat="46.51000086" lon="6.61952748"><ele>385.145386</ele><time>2009-05-17T11:25:56Z</time></trkpt>
<trkpt lat="46.50990414" lon="6.61971632"><ele>385.145386</ele><time>2009-05-17T11:25:58Z</time></trkpt>
<trkpt lat="46.50925714" lon="6.62070665"><ele>385.145386</ele><time>2009-05-17T11:26:09Z</time></trkpt>
<trkpt lat="46.50854853" lon="6.62230013"><ele>385.145386</ele><time>2009-05-17T11:26:25Z</time></trkpt>
<trkpt lat="46.50818425" lon="6.62353529"><ele>386.106689</ele><time>2009-05-17T11:26:36Z</time></trkpt>
<trkpt lat="46.50766927" lon="6.62472594"><ele>386.106689</ele><time>2009-05-17T11:26:49Z</time></trkpt>
<trkpt lat="46.50701514" lon="6.62610124"><ele>386.106689</ele><time>2009-05-17T11:27:05Z</time></trkpt>
<trkpt lat="46.50691180" lon="6.62635429"><ele>385.625977</ele><time>2009-05-17T11:27:08Z</time></trkpt>
<trkpt lat="46.50695806" lon="6.62704286"><ele>385.625977</ele><time>2009-05-17T11:27:15Z</time></trkpt>
<trkpt lat="46.50705018" lon="6.62725040"><ele>385.145386</ele><time>2009-05-17T11:27:17Z</time></trkpt>
<trkpt lat="46.50699696" lon="6.62806034"><ele>385.145386</ele><time>2009-05-17T11:27:24Z</time></trkpt>
<trkpt lat="46.50684885" lon="6.62990780"><ele>385.145386</ele><time>2009-05-17T11:27:39Z</time></trkpt>
<trkpt lat="46.50692328" lon="6.63038858"><ele>384.664795</ele><time>2009-05-17T11:27:43Z</time></trkpt>
<trkpt lat="46.50733374" lon="6.63240896"><ele>385.145386</ele><time>2009-05-17T11:28:00Z</time></trkpt>
<trkpt lat="46.50716049" lon="6.63368292"><ele>385.145386</ele><time>2009-05-17T11:28:12Z</time></trkpt>
<trkpt lat="46.50685522" lon="6.63483552"><ele>384.664795</ele><time>2009-05-17T11:28:23Z</time></trkpt>
<trkpt lat="46.50665673" lon="6.63554974"><ele>385.145386</ele><time>2009-05-17T11:28:30Z</time></trkpt>
<trkpt lat="46.50648457" lon="6.63586808"><ele>385.145386</ele><time>2009-05-17T11:28:35Z</time></trkpt>
<trkpt lat="46.50632406" lon="6.63626145"><ele>384.664795</ele><time>2009-05-17T11:28:40Z</time></trkpt>
<trkpt lat="46.50619028" lon="6.63709603"><ele>385.625977</ele><time>2009-05-17T11:28:47Z</time></trkpt>
<trkpt lat="46.50609867" lon="6.63749803"><ele>384.664795</ele><time>2009-05-17T11:28:51Z</time></trkpt>
<trkpt lat="46.50585626" lon="6.63852129"><ele>384.664795</ele><time>2009-05-17T11:29:01Z</time></trkpt>
<trkpt lat="46.50575870" lon="6.63879613"><ele>384.184082</ele><time>2009-05-17T11:29:10Z</time></trkpt>
<trkpt lat="46.50576289" lon="6.63878582"><ele>384.184082</ele><time>2009-05-17T11:29:28Z</time></trkpt>
<trkpt lat="46.50563397" lon="6.63933442"><ele>384.184082</ele><time>2009-05-17T11:29:39Z</time></trkpt>
<trkpt lat="46.50527355" lon="6.64071517"><ele>385.145386</ele><time>2009-05-17T11:29:54Z</time></trkpt>
<trkpt lat="46.50525067" lon="6.64081659"><ele>384.664795</ele><time>2009-05-17T11:29:55Z</time></trkpt>
<trkpt lat="46.50536072" lon="6.64179049"><ele>386.587402</ele><time>2009-05-17T11:30:05Z</time></trkpt>
<trkpt lat="46.50566943" lon="6.64213389"><ele>387.548584</ele><time>2009-05-17T11:30:11Z</time></trkpt>
<trkpt lat="46.50633152" lon="6.64248367"><ele>390.913208</ele><time>2009-05-17T11:30:23Z</time></trkpt>
<trkpt lat="46.50637954" lon="6.64251368"><ele>391.393799</ele><time>2009-05-17T11:30:24Z</time></trkpt>
<trkpt lat="46.50654668" lon="6.64282800"><ele>392.355347</ele><time>2009-05-17T11:30:30Z</time></trkpt>
<trkpt lat="46.50654383" lon="6.64416558"><ele>392.355347</ele><time>2009-05-17T11:30:44Z</time></trkpt>
<trkpt lat="46.50649790" lon="6.64595788"><ele>391.874512</ele><time>2009-05-17T11:31:00Z</time></trkpt>
<trkpt lat="46.50645607" lon="6.64809502"><ele>390.913208</ele><time>2009-05-17T11:31:18Z</time></trkpt>
<trkpt lat="46.50641173" lon="6.65109792"><ele>390.432617</ele><time>2009-05-17T11:31:43Z</time></trkpt>
<trkpt lat="46.50636362" lon="6.65342339"><ele>392.835938</ele><time>2009-05-17T11:32:05Z</time></trkpt>
<trkpt lat="46.50652723" lon="6.65563018"><ele>392.835938</ele><time>2009-05-17T11:32:26Z</time></trkpt>
<trkpt lat="46.50659228" lon="6.65643786"><ele>392.355347</ele><time>2009-05-17T11:32:33Z</time></trkpt>
<trkpt lat="46.50673360" lon="6.65833309"><ele>389.951904</ele><time>2009-05-17T11:32:49Z</time></trkpt>
<trkpt lat="46.50670325" lon="6.66024366"><ele>390.913208</ele><time>2009-05-17T11:33:05Z</time></trkpt>
<trkpt lat="46.50661290" lon="6.66109753"><ele>390.432617</ele><time>2009-05-17T11:33:14Z</time></trkpt>
<trkpt lat="46.50679680" lon="6.66243033"><ele>390.913208</ele><time>2009-05-17T11:33:28Z</time></trkpt>
<trkpt lat="46.50719058" lon="6.66485229"><ele>392.355347</ele><time>2009-05-17T11:33:49Z</time></trkpt>
<trkpt lat="46.50701917" lon="6.66630202"><ele>391.874512</ele><time>2009-05-17T11:34:01Z</time></trkpt>
<trkpt lat="46.50668138" lon="6.66729276"><ele>395.239136</ele><time>2009-05-17T11:34:11Z</time></trkpt>
<trkpt lat="46.50628399" lon="6.66880603"><ele>395.239136</ele><time>2009-05-17T11:34:26Z</time></trkpt>
<trkpt lat="46.50591343" lon="6.67036490"><ele>394.758545</ele><time>2009-05-17T11:34:40Z</time></trkpt>
<trkpt lat="46.50516593" lon="6.67209970"><ele>393.316528</ele><time>2009-05-17T11:34:57Z</time></trkpt>
<trkpt lat="46.50489477" lon="6.67377759"><ele>391.393799</ele><time>2009-05-17T11:35:10Z</time></trkpt>
<trkpt lat="46.50488522" lon="6.67390449"><ele>390.913208</ele><time>2009-05-17T11:35:11Z</time></trkpt>
<trkpt lat="46.50478765" lon="6.67469809"><ele>391.874512</ele><time>2009-05-17T11:35:17Z</time></trkpt>
<trkpt lat="46.50443092" lon="6.67624589"><ele>388.029297</ele><time>2009-05-17T11:35:29Z</time></trkpt>
<trkpt lat="46.50406899" lon="6.67869726"><ele>385.625977</ele><time>2009-05-17T11:35:47Z</time></trkpt>
<trkpt lat="46.50402683" lon="6.67991700"><ele>386.587402</ele><time>2009-05-17T11:35:56Z</time></trkpt>
<trkpt lat="46.50403404" lon="6.68097119"><ele>388.029297</ele><time>2009-05-17T11:36:05Z</time></trkpt>
<trkpt lat="46.50432447" lon="6.68232285"><ele>390.432617</ele><time>2009-05-17T11:36:17Z</time></trkpt>
<trkpt lat="46.50439354" lon="6.68292627"><ele>391.874512</ele><time>2009-05-17T11:36:22Z</time></trkpt>
<trkpt lat="46.50438725" lon="6.68326003"><ele>392.835938</ele><time>2009-05-17T11:36:25Z</time></trkpt>
<trkpt lat="46.50414786" lon="6.68446217"><ele>393.797241</ele><time>2009-05-17T11:36:37Z</time></trkpt>
<trkpt lat="46.50360396" lon="6.68640266"><ele>394.277954</ele><time>2009-05-17T11:36:56Z</time></trkpt>
<trkpt lat="46.50339349" lon="6.68690080"><ele>394.277954</ele><time>2009-05-17T11:37:01Z</time></trkpt>
<trkpt lat="46.50262370" lon="6.68802205"><ele>392.355347</ele><time>2009-05-17T11:37:13Z</time></trkpt>
<trkpt lat="46.50155442" lon="6.68960136"><ele>391.393799</ele><time>2009-05-17T11:37:30Z</time></trkpt>
<trkpt lat="46.50081614" lon="6.69087759"><ele>389.471191</ele><time>2009-05-17T11:37:43Z</time></trkpt>
<trkpt lat="46.50051406" lon="6.69256479"><ele>389.471191</ele><time>2009-05-17T11:37:57Z</time></trkpt>
<trkpt lat="46.50028498" lon="6.69501549"><ele>389.951904</ele><time>2009-05-17T11:38:17Z</time></trkpt>
<trkpt lat="46.49974803" lon="6.69681148"><ele>388.51001</ele><time>2009-05-17T11:38:33Z</time></trkpt>
<trkpt lat="46.49904052" lon="6.69868374"><ele>390.913208</ele><time>2009-05-17T11:38:51Z</time></trkpt>
<trkpt lat="46.49857289" lon="6.70046364"><ele>391.393799</ele><time>2009-05-17T11:39:08Z</time></trkpt>
<trkpt lat="46.49789756" lon="6.70170559"><ele>392.355347</ele><time>2009-05-17T11:39:22Z</time></trkpt>
<trkpt lat="46.49733447" lon="6.70291912"><ele>392.835938</ele><time>2009-05-17T11:39:35Z</time></trkpt>
<trkpt lat="46.49659443" lon="6.70452157"><ele>395.719849</ele><time>2009-05-17T11:39:52Z</time></trkpt>
<trkpt lat="46.49594617" lon="6.70574826"><ele>394.277954</ele><time>2009-05-17T11:40:05Z</time></trkpt>
<trkpt lat="46.49498644" lon="6.70804239"><ele>394.277954</ele><time>2009-05-17T11:40:26Z</time></trkpt>
<trkpt lat="46.49400542" lon="6.70950956"><ele>392.835938</ele><time>2009-05-17T11:40:41Z</time></trkpt>
<trkpt lat="46.49308819" lon="6.71082233"><ele>394.758545</ele><time>2009-05-17T11:40:55Z</time></trkpt>
<trkpt lat="46.49228973" lon="6.71196654"><ele>397.642456</ele><time>2009-05-17T11:41:09Z</time></trkpt>
<trkpt lat="46.49135029" lon="6.71345282"><ele>395.239136</ele><time>2009-05-17T11:41:25Z</time></trkpt>
<trkpt lat="46.49080027" lon="6.71467415"><ele>391.874512</ele><time>2009-05-17T11:41:35Z</time></trkpt>
<trkpt lat="46.48986778" lon="6.71636185"><ele>391.874512</ele><time>2009-05-17T11:41:49Z</time></trkpt>
<trkpt lat="46.48868434" lon="6.71870023"><ele>391.874512</ele><time>2009-05-17T11:42:10Z</time></trkpt>
<trkpt lat="46.48765949" lon="6.72051810"><ele>392.835938</ele><time>2009-05-17T11:42:29Z</time></trkpt>
<trkpt lat="46.48720846" lon="6.72200530"><ele>391.874512</ele><time>2009-05-17T11:42:42Z</time></trkpt>
<trkpt lat="46.48731097" lon="6.72362728"><ele>392.355347</ele><time>2009-05-17T11:42:54Z</time></trkpt>
<trkpt lat="46.48743326" lon="6.72469086"><ele>395.719849</ele><time>2009-05-17T11:43:03Z</time></trkpt>
<trkpt lat="46.48764264" lon="6.72572100"><ele>399.084351</ele><time>2009-05-17T11:43:13Z</time></trkpt>
<trkpt lat="46.48824345" lon="6.72734549"><ele>401.00708</ele><time>2009-05-17T11:43:30Z</time></trkpt>
<trkpt lat="46.48916295" lon="6.72934189"><ele>400.526489</ele><time>2009-05-17T11:43:49Z</time></trkpt>
<trkpt lat="46.48988773" lon="6.73129966"><ele>402.449097</ele><time>2009-05-17T11:44:06Z</time></trkpt>
<trkpt lat="46.49064034" lon="6.73363670"><ele>404.371704</ele><time>2009-05-17T11:44:29Z</time></trkpt>
<trkpt lat="46.49098610" lon="6.73523035"><ele>401.487793</ele><time>2009-05-17T11:44:42Z</time></trkpt>
<trkpt lat="46.49093715" lon="6.73652619"><ele>398.60376</ele><time>2009-05-17T11:44:51Z</time></trkpt>
<trkpt lat="46.49043817" lon="6.73807986"><ele>396.681152</ele><time>2009-05-17T11:45:03Z</time></trkpt>
<trkpt lat="46.48984783" lon="6.73994483"><ele>397.642456</ele><time>2009-05-17T11:45:19Z</time></trkpt>
<trkpt lat="46.48979469" lon="6.74204735"><ele>395.719849</ele><time>2009-05-17T11:45:35Z</time></trkpt>
<trkpt lat="46.48972135" lon="6.74454549"><ele>397.161743</ele><time>2009-05-17T11:45:54Z</time></trkpt>
<trkpt lat="46.48922363" lon="6.74591434"><ele>399.565063</ele><time>2009-05-17T11:46:07Z</time></trkpt>
<trkpt lat="46.48844655" lon="6.74781008"><ele>401.00708</ele><time>2009-05-17T11:46:26Z</time></trkpt>
<trkpt lat="46.48817933" lon="6.74858406"><ele>400.045898</ele><time>2009-05-17T11:46:33Z</time></trkpt>
<trkpt lat="46.48795176" lon="6.74897147"><ele>400.526489</ele><time>2009-05-17T11:46:37Z</time></trkpt>
<trkpt lat="46.48715942" lon="6.75024066"><ele>399.084351</ele><time>2009-05-17T11:46:50Z</time></trkpt>
<trkpt lat="46.48634805" lon="6.75243228"><ele>395.719849</ele><time>2009-05-17T11:47:08Z</time></trkpt>
<trkpt lat="46.48555328" lon="6.75362653"><ele>394.277954</ele><time>2009-05-17T11:47:20Z</time></trkpt>
<trkpt lat="46.48435107" lon="6.75505757"><ele>395.719849</ele><time>2009-05-17T11:47:37Z</time></trkpt>
<trkpt lat="46.48372619" lon="6.75653514"><ele>395.719849</ele><time>2009-05-17T11:47:50Z</time></trkpt>
<trkpt lat="46.48266588" lon="6.75792452"><ele>396.200562</ele><time>2009-05-17T11:48:05Z</time></trkpt>
<trkpt lat="46.48138756" lon="6.75914300"><ele>396.200562</ele><time>2009-05-17T11:48:21Z</time></trkpt>
<trkpt lat="46.48043873" lon="6.76086213"><ele>396.200562</ele><time>2009-05-17T11:48:37Z</time></trkpt>
<trkpt lat="46.47918773" lon="6.76377534"><ele>395.239136</ele><time>2009-05-17T11:49:02Z</time></trkpt>
<trkpt lat="46.47822674" lon="6.76648152"><ele>393.797241</ele><time>2009-05-17T11:49:24Z</time></trkpt>
<trkpt lat="46.47730088" lon="6.76910212"><ele>392.355347</ele><time>2009-05-17T11:49:45Z</time></trkpt>
<trkpt lat="46.47650653" lon="6.77172264"><ele>390.432617</ele><time>2009-05-17T11:50:05Z</time></trkpt>
<trkpt lat="46.47544605" lon="6.77469294"><ele>390.913208</ele><time>2009-05-17T11:50:29Z</time></trkpt>
<trkpt lat="46.47480106" lon="6.77684876"><ele>390.432617</ele><time>2009-05-17T11:50:46Z</time></trkpt>
<trkpt lat="46.47470425" lon="6.77835776"><ele>393.797241</ele><time>2009-05-17T11:50:57Z</time></trkpt>
<trkpt lat="46.47442748" lon="6.77926292"><ele>396.200562</ele><time>2009-05-17T11:51:05Z</time></trkpt>
<trkpt lat="46.47421969" lon="6.77990983"><ele>397.161743</ele><time>2009-05-17T11:51:11Z</time></trkpt>
<trkpt lat="46.47430066" lon="6.78127323"><ele>397.161743</ele><time>2009-05-17T11:51:22Z</time></trkpt>
<trkpt lat="46.47431114" lon="6.78140449"><ele>397.161743</ele><time>2009-05-17T11:51:23Z</time></trkpt>
<trkpt lat="46.47426185" lon="6.78193565"><ele>396.200562</ele><time>2009-05-17T11:51:27Z</time></trkpt>
<trkpt lat="46.47405013" lon="6.78300326"><ele>394.758545</ele><time>2009-05-17T11:51:35Z</time></trkpt>
<trkpt lat="46.47423428" lon="6.78415510"><ele>390.913208</ele><time>2009-05-17T11:51:43Z</time></trkpt>
<trkpt lat="46.47427015" lon="6.78430195"><ele>391.393799</ele><time>2009-05-17T11:51:44Z</time></trkpt>
<trkpt lat="46.47445883" lon="6.78517484"><ele>388.51001</ele><time>2009-05-17T11:51:50Z</time></trkpt>
<trkpt lat="46.47446679" lon="6.78615930"><ele>389.951904</ele><time>2009-05-17T11:51:57Z</time></trkpt>
<trkpt lat="46.47467148" lon="6.78843624"><ele>389.471191</ele><time>2009-05-17T11:52:14Z</time></trkpt>
<trkpt lat="46.47450048" lon="6.79004724"><ele>389.471191</ele><time>2009-05-17T11:52:26Z</time></trkpt>
<trkpt lat="46.47401073" lon="6.79200073"><ele>390.913208</ele><time>2009-05-17T11:52:42Z</time></trkpt>
<trkpt lat="46.47340715" lon="6.79448982"><ele>390.913208</ele><time>2009-05-17T11:53:02Z</time></trkpt>
<trkpt lat="46.47279812" lon="6.79591994"><ele>391.874512</ele><time>2009-05-17T11:53:15Z</time></trkpt>
<trkpt lat="46.47268899" lon="6.79744762"><ele>392.355347</ele><time>2009-05-17T11:53:27Z</time></trkpt>
<trkpt lat="46.47244893" lon="6.79954880"><ele>392.835938</ele><time>2009-05-17T11:53:44Z</time></trkpt>
<trkpt lat="46.47190042" lon="6.80117464"><ele>390.913208</ele><time>2009-05-17T11:53:58Z</time></trkpt>
<trkpt lat="46.47170587" lon="6.80327028"><ele>388.029297</ele><time>2009-05-17T11:54:13Z</time></trkpt>
<trkpt lat="46.47150186" lon="6.80500173"><ele>391.874512</ele><time>2009-05-17T11:54:27Z</time></trkpt>
<trkpt lat="46.47122945" lon="6.80623295"><ele>395.239136</ele><time>2009-05-17T11:54:39Z</time></trkpt>
<trkpt lat="46.47088612" lon="6.80839355"><ele>396.681152</ele><time>2009-05-17T11:54:59Z</time></trkpt>
<trkpt lat="46.47078604" lon="6.81065273"><ele>397.642456</ele><time>2009-05-17T11:55:18Z</time></trkpt>
<trkpt lat="46.47063836" lon="6.81324449"><ele>397.642456</ele><time>2009-05-17T11:55:39Z</time></trkpt>
<trkpt lat="46.47048346" lon="6.81632359"><ele>394.758545</ele><time>2009-05-17T11:56:02Z</time></trkpt>
<trkpt lat="46.47039025" lon="6.81802838"><ele>391.393799</ele><time>2009-05-17T11:56:14Z</time></trkpt>
<trkpt lat="46.47023150" lon="6.82076935"><ele>392.835938</ele><time>2009-05-17T11:56:34Z</time></trkpt>
<trkpt lat="46.46996043" lon="6.82179512"><ele>396.200562</ele><time>2009-05-17T11:56:44Z</time></trkpt>
<trkpt lat="46.46951484" lon="6.82253567"><ele>401.00708</ele><time>2009-05-17T11:56:54Z</time></trkpt>
<trkpt lat="46.46905962" lon="6.82284957"><ele>399.084351</ele><time>2009-05-17T11:57:01Z</time></trkpt>
<trkpt lat="46.46870633" lon="6.82315626"><ele>397.642456</ele><time>2009-05-17T11:57:06Z</time></trkpt>
<trkpt lat="46.46863902" lon="6.82324620"><ele>397.161743</ele><time>2009-05-17T11:57:07Z</time></trkpt>
<trkpt lat="46.46833434" lon="6.82430400"><ele>394.277954</ele><time>2009-05-17T11:57:15Z</time></trkpt>
<trkpt lat="46.46836602" lon="6.82477246"><ele>392.835938</ele><time>2009-05-17T11:57:18Z</time></trkpt>
<trkpt lat="46.46841715" lon="6.82509106"><ele>391.393799</ele><time>2009-05-17T11:57:20Z</time></trkpt>
<trkpt lat="46.46850474" lon="6.82574837"><ele>388.990601</ele><time>2009-05-17T11:57:24Z</time></trkpt>
<trkpt lat="46.46859217" lon="6.82696466"><ele>385.625977</ele><time>2009-05-17T11:57:31Z</time></trkpt>
<trkpt lat="46.46863592" lon="6.82839788"><ele>382.261353</ele><time>2009-05-17T11:57:39Z</time></trkpt>
<trkpt lat="46.46841053" lon="6.83003303"><ele>381.300049</ele><time>2009-05-17T11:57:50Z</time></trkpt>
<trkpt lat="46.46835429" lon="6.83176540"><ele>381.300049</ele><time>2009-05-17T11:58:03Z</time></trkpt>
<trkpt lat="46.46835077" lon="6.83261599"><ele>384.664795</ele><time>2009-05-17T11:58:10Z</time></trkpt>
<trkpt lat="46.46834775" lon="6.83318295"><ele>385.625977</ele><time>2009-05-17T11:58:15Z</time></trkpt>
<trkpt lat="46.46814558" lon="6.83423772"><ele>387.067993</ele><time>2009-05-17T11:58:26Z</time></trkpt>
<trkpt lat="46.46750805" lon="6.83521522"><ele>387.067993</ele><time>2009-05-17T11:58:39Z</time></trkpt>
<trkpt lat="46.46693666" lon="6.83580623"><ele>387.067993</ele><time>2009-05-17T11:58:49Z</time></trkpt>
<trkpt lat="46.46696247" lon="6.83616472"><ele>387.067993</ele><time>2009-05-17T11:58:55Z</time></trkpt>
<trkpt lat="46.46717562" lon="6.83597437"><ele>387.067993</ele><time>2009-05-17T11:58:59Z</time></trkpt>
<trkpt lat="46.46753487" lon="6.83582559"><ele>386.106689</ele><time>2009-05-17T11:59:05Z</time></trkpt>
<trkpt lat="46.46784232" lon="6.83612399"><ele>386.587402</ele><time>2009-05-17T11:59:12Z</time></trkpt>
<trkpt lat="46.46787534" lon="6.83635424"><ele>387.548584</ele><time>2009-05-17T11:59:17Z</time></trkpt>
<trkpt lat="46.46797987" lon="6.83646547"><ele>388.029297</ele><time>2009-05-17T11:59:22Z</time></trkpt>
<trkpt lat="46.46800250" lon="6.83643378"><ele>383.222656</ele><time>2009-05-17T11:59:27Z</time></trkpt>
<trkpt lat="46.46800082" lon="6.83643085"><ele>392.355347</ele><time>2009-05-17T11:59:28Z</time></trkpt>
<trkpt lat="46.46800485" lon="6.83642666"><ele>390.913208</ele><time>2009-05-17T11:59:29Z</time></trkpt>
<trkpt lat="46.46800778" lon="6.83643177"><ele>388.51001</ele><time>2009-05-17T11:59:31Z</time></trkpt>
<trkpt lat="46.46801172" lon="6.83645574"><ele>389.471191</ele><time>2009-05-17T11:59:46Z</time></trkpt>
<trkpt lat="46.46800937" lon="6.83646195"><ele>389.951904</ele><time>2009-05-17T11:59:56Z</time></trkpt>
<trkpt lat="46.46801532" lon="6.83645407"><ele>388.029297</ele><time>2009-05-17T11:59:59Z</time></trkpt>
<trkpt lat="46.46801474" lon="6.83645323"><ele>391.393799</ele><time>2009-05-17T12:00:08Z</time></trkpt>
<trkpt lat="46.46801474" lon="6.83645340"><ele>389.471191</ele><time>2009-05-17T12:00:09Z</time></trkpt>
<trkpt lat="46.46814189" lon="6.83639414"><ele>389.951904</ele><time>2009-05-17T12:00:22Z</time></trkpt>
<trkpt lat="46.46839578" lon="6.83638869"><ele>391.874512</ele><time>2009-05-17T12:00:29Z</time></trkpt>
<trkpt lat="46.46853835" lon="6.83641995"><ele>393.316528</ele><time>2009-05-17T12:00:33Z</time></trkpt>
<trkpt lat="46.46896910" lon="6.83665104"><ele>396.681152</ele><time>2009-05-17T12:00:46Z</time></trkpt>
<trkpt lat="46.46907044" lon="6.83674609"><ele>398.60376</ele><time>2009-05-17T12:00:49Z</time></trkpt>
<trkpt lat="46.46957478" lon="6.83745864"><ele>401.487793</ele><time>2009-05-17T12:01:07Z</time></trkpt>
<trkpt lat="46.46986898" lon="6.83828023"><ele>404.852295</ele><time>2009-05-17T12:01:24Z</time></trkpt>
<trkpt lat="46.46988482" lon="6.83832684"><ele>405.333008</ele><time>2009-05-17T12:01:25Z</time></trkpt>
<trkpt lat="46.47006646" lon="6.83882095"><ele>408.217041</ele><time>2009-05-17T12:01:36Z</time></trkpt>
<trkpt lat="46.47031507" lon="6.83936024"><ele>411.581665</ele><time>2009-05-17T12:01:49Z</time></trkpt>
<trkpt lat="46.47066593" lon="6.83984354"><ele>414.946167</ele><time>2009-05-17T12:02:02Z</time></trkpt>
<trkpt lat="46.47069477" lon="6.83987866"><ele>414.946167</ele><time>2009-05-17T12:02:03Z</time></trkpt>
<trkpt lat="46.47114487" lon="6.84045089"><ele>418.310791</ele><time>2009-05-17T12:02:19Z</time></trkpt>
<trkpt lat="46.47146154" lon="6.84095138"><ele>421.675415</ele><time>2009-05-17T12:02:32Z</time></trkpt>
<trkpt lat="46.47186848" lon="6.84177146"><ele>424.559448</ele><time>2009-05-17T12:02:52Z</time></trkpt>
<trkpt lat="46.47204115" lon="6.84213725"><ele>427.92395</ele><time>2009-05-17T12:03:01Z</time></trkpt>
<trkpt lat="46.47222823" lon="6.84254453"><ele>429.846558</ele><time>2009-05-17T12:03:11Z</time></trkpt>
<trkpt lat="46.47244147" lon="6.84301877"><ele>432.730713</ele><time>2009-05-17T12:03:22Z</time></trkpt>
<trkpt lat="46.47278773" lon="6.84376862"><ele>436.095215</ele><time>2009-05-17T12:03:39Z</time></trkpt>
<trkpt lat="46.47298344" lon="6.84426005"><ele>439.459717</ele><time>2009-05-17T12:03:50Z</time></trkpt>
<trkpt lat="46.47313826" lon="6.84486757"><ele>442.824463</ele><time>2009-05-17T12:04:03Z</time></trkpt>
<trkpt lat="46.47320364" lon="6.84576913"><ele>445.708374</ele><time>2009-05-17T12:04:21Z</time></trkpt>
<trkpt lat="46.47315259" lon="6.84631965"><ele>448.592407</ele><time>2009-05-17T12:04:32Z</time></trkpt>
<trkpt lat="46.47298462" lon="6.84705743"><ele>451.957031</ele><time>2009-05-17T12:04:48Z</time></trkpt>
<trkpt lat="46.47268312" lon="6.84783258"><ele>455.802246</ele><time>2009-05-17T12:05:06Z</time></trkpt>
<trkpt lat="46.47249637" lon="6.84836048"><ele>456.282959</ele><time>2009-05-17T12:05:17Z</time></trkpt>
<trkpt lat="46.47244675" lon="6.84859115"><ele>456.76355</ele><time>2009-05-17T12:05:21Z</time></trkpt>
<trkpt lat="46.47245656" lon="6.84958616"><ele>457.244263</ele><time>2009-05-17T12:05:38Z</time></trkpt>
<trkpt lat="46.47270718" lon="6.85090799"><ele>456.76355</ele><time>2009-05-17T12:05:54Z</time></trkpt>
<trkpt lat="46.47269377" lon="6.85227416"><ele>455.802246</ele><time>2009-05-17T12:06:08Z</time></trkpt>
<trkpt lat="46.47224416" lon="6.85346598"><ele>454.360229</ele><time>2009-05-17T12:06:22Z</time></trkpt>
<trkpt lat="46.47181232" lon="6.85433887"><ele>454.84082</ele><time>2009-05-17T12:06:34Z</time></trkpt>
<trkpt lat="46.47162407" lon="6.85452947"><ele>454.84082</ele><time>2009-05-17T12:06:38Z</time></trkpt>
<trkpt lat="46.47150144" lon="6.85501613"><ele>455.802246</ele><time>2009-05-17T12:06:45Z</time></trkpt>
<trkpt lat="46.47136666" lon="6.85560714"><ele>459.647583</ele><time>2009-05-17T12:06:54Z</time></trkpt>
<trkpt lat="46.47135828" lon="6.85566807"><ele>459.647583</ele><time>2009-05-17T12:06:55Z</time></trkpt>
<trkpt lat="46.47132307" lon="6.85601693"><ele>462.050781</ele><time>2009-05-17T12:07:01Z</time></trkpt>
<trkpt lat="46.47136775" lon="6.85679996"><ele>464.934814</ele><time>2009-05-17T12:07:16Z</time></trkpt>
<trkpt lat="46.47150739" lon="6.85736029"><ele>468.299316</ele><time>2009-05-17T12:07:28Z</time></trkpt>
<trkpt lat="46.47168123" lon="6.85777386"><ele>471.66394</ele><time>2009-05-17T12:07:38Z</time></trkpt>
<trkpt lat="46.47192649" lon="6.85816739"><ele>474.547974</ele><time>2009-05-17T12:07:49Z</time></trkpt>
<trkpt lat="46.47235799" lon="6.85874666"><ele>477.912476</ele><time>2009-05-17T12:08:07Z</time></trkpt>
<trkpt lat="46.47267147" lon="6.85925670"><ele>481.277222</ele><time>2009-05-17T12:08:22Z</time></trkpt>
<trkpt lat="46.47281472" lon="6.85961067"><ele>484.161133</ele><time>2009-05-17T12:08:31Z</time></trkpt>
<trkpt lat="46.47302049" lon="6.86016387"><ele>487.045044</ele><time>2009-05-17T12:08:45Z</time></trkpt>
<trkpt lat="46.47322828" lon="6.86057718"><ele>488.967773</ele><time>2009-05-17T12:08:57Z</time></trkpt>
<trkpt lat="46.47359272" lon="6.86035196"><ele>490.40979</ele><time>2009-05-17T12:09:10Z</time></trkpt>
<trkpt lat="46.47389296" lon="6.85975106"><ele>491.370972</ele><time>2009-05-17T12:09:25Z</time></trkpt>
<trkpt lat="46.47414442" lon="6.85855187"><ele>490.890381</ele><time>2009-05-17T12:09:43Z</time></trkpt>
<trkpt lat="46.47429463" lon="6.85778324"><ele>490.40979</ele><time>2009-05-17T12:09:54Z</time></trkpt>
<trkpt lat="46.47459847" lon="6.85759130"><ele>491.851685</ele><time>2009-05-17T12:10:01Z</time></trkpt>
<trkpt lat="46.47544655" lon="6.85797594"><ele>495.696899</ele><time>2009-05-17T12:10:18Z</time></trkpt>
<trkpt lat="46.47549039" lon="6.85799832"><ele>495.696899</ele><time>2009-05-17T12:10:19Z</time></trkpt>
<trkpt lat="46.47558033" lon="6.85804803"><ele>496.177734</ele><time>2009-05-17T12:10:21Z</time></trkpt>
<trkpt lat="46.47619916" lon="6.85829429"><ele>498.100342</ele><time>2009-05-17T12:10:36Z</time></trkpt>
<trkpt lat="46.47621425" lon="6.85823042"><ele>498.580933</ele><time>2009-05-17T12:10:41Z</time></trkpt>
<trkpt lat="46.47639228" lon="6.85840074"><ele>498.580933</ele><time>2009-05-17T12:10:43Z</time></trkpt>
<trkpt lat="46.47663670" lon="6.85901354"><ele>499.061523</ele><time>2009-05-17T12:10:52Z</time></trkpt>
<trkpt lat="46.47661909" lon="6.85908252"><ele>499.542236</ele><time>2009-05-17T12:10:53Z</time></trkpt>
<trkpt lat="46.47633528" lon="6.85989297"><ele>500.50354</ele><time>2009-05-17T12:11:05Z</time></trkpt>
<trkpt lat="46.47612733" lon="6.86072957"><ele>500.984131</ele><time>2009-05-17T12:11:17Z</time></trkpt>
<trkpt lat="46.47612800" lon="6.86100240"><ele>502.906738</ele><time>2009-05-17T12:11:21Z</time></trkpt>
<trkpt lat="46.47625515" lon="6.86164940"><ele>506.271484</ele><time>2009-05-17T12:11:33Z</time></trkpt>
<trkpt lat="46.47640888" lon="6.86208358"><ele>509.636108</ele><time>2009-05-17T12:11:44Z</time></trkpt>
<trkpt lat="46.47642204" lon="6.86212013"><ele>509.636108</ele><time>2009-05-17T12:11:45Z</time></trkpt>
<trkpt lat="46.47658892" lon="6.86256127"><ele>513.000732</ele><time>2009-05-17T12:11:58Z</time></trkpt>
<trkpt lat="46.47670769" lon="6.86289034"><ele>516.365234</ele><time>2009-05-17T12:12:08Z</time></trkpt>
<trkpt lat="46.47671968" lon="6.86292278"><ele>516.365234</ele><time>2009-05-17T12:12:09Z</time></trkpt>
<trkpt lat="46.47687550" lon="6.86334749"><ele>519.729858</ele><time>2009-05-17T12:12:22Z</time></trkpt>
<trkpt lat="46.47706686" lon="6.86386314"><ele>523.094604</ele><time>2009-05-17T12:12:38Z</time></trkpt>
<trkpt lat="46.47724237" lon="6.86424469"><ele>526.459106</ele><time>2009-05-17T12:12:50Z</time></trkpt>
<trkpt lat="46.47759123" lon="6.86483578"><ele>529.34314</ele><time>2009-05-17T12:13:07Z</time></trkpt>
<trkpt lat="46.47804083" lon="6.86568084"><ele>531.265747</ele><time>2009-05-17T12:13:27Z</time></trkpt>
<trkpt lat="46.47856303" lon="6.86596080"><ele>534.149658</ele><time>2009-05-17T12:13:42Z</time></trkpt>
<trkpt lat="46.47903342" lon="6.86589978"><ele>534.630371</ele><time>2009-05-17T12:13:53Z</time></trkpt>
<trkpt lat="46.47952879" lon="6.86558923"><ele>534.630371</ele><time>2009-05-17T12:14:04Z</time></trkpt>
<trkpt lat="46.47968394" lon="6.86578536"><ele>536.072388</ele><time>2009-05-17T12:14:10Z</time></trkpt>
<trkpt lat="46.47957388" lon="6.86588712"><ele>536.553101</ele><time>2009-05-17T12:14:13Z</time></trkpt>
<trkpt lat="46.47910735" lon="6.86609097"><ele>539.917603</ele><time>2009-05-17T12:14:25Z</time></trkpt>
<trkpt lat="46.47862287" lon="6.86618133"><ele>543.282104</ele><time>2009-05-17T12:14:38Z</time></trkpt>
<trkpt lat="46.47793950" lon="6.86623732"><ele>543.762817</ele><time>2009-05-17T12:14:54Z</time></trkpt>
<trkpt lat="46.47757773" lon="6.86629825"><ele>542.801514</ele><time>2009-05-17T12:15:03Z</time></trkpt>
<trkpt lat="46.47739643" lon="6.86632600"><ele>541.84021</ele><time>2009-05-17T12:15:07Z</time></trkpt>
<trkpt lat="46.47726123" lon="6.86631929"><ele>541.359497</ele><time>2009-05-17T12:15:10Z</time></trkpt>
<trkpt lat="46.47712025" lon="6.86633639"><ele>540.398315</ele><time>2009-05-17T12:15:13Z</time></trkpt>
<trkpt lat="46.47702604" lon="6.86634293"><ele>540.878906</ele><time>2009-05-17T12:15:15Z</time></trkpt>
<trkpt lat="46.47678858" lon="6.86637436"><ele>540.398315</ele><time>2009-05-17T12:15:20Z</time></trkpt>
<trkpt lat="46.47649127" lon="6.86642733"><ele>539.43689</ele><time>2009-05-17T12:15:26Z</time></trkpt>
<trkpt lat="46.47634274" lon="6.86649472"><ele>541.359497</ele><time>2009-05-17T12:15:29Z</time></trkpt>
<trkpt lat="46.47623512" lon="6.86665549"><ele>541.359497</ele><time>2009-05-17T12:15:32Z</time></trkpt>
<trkpt lat="46.47619707" lon="6.86678424"><ele>541.84021</ele><time>2009-05-17T12:15:34Z</time></trkpt>
<trkpt lat="46.47599565" lon="6.86758907"><ele>544.724243</ele><time>2009-05-17T12:15:47Z</time></trkpt>
<trkpt lat="46.47590412" lon="6.86824998"><ele>548.569336</ele><time>2009-05-17T12:15:59Z</time></trkpt>
<trkpt lat="46.47591979" lon="6.86829164"><ele>548.569336</ele><time>2009-05-17T12:16:00Z</time></trkpt>
<trkpt lat="46.47617175" lon="6.86842600"><ele>551.934082</ele><time>2009-05-17T12:16:10Z</time></trkpt>
<trkpt lat="46.47618424" lon="6.86841879"><ele>551.934082</ele><time>2009-05-17T12:16:11Z</time></trkpt>
<trkpt lat="46.47623579" lon="6.86833506"><ele>553.375977</ele><time>2009-05-17T12:16:15Z</time></trkpt>
<trkpt lat="46.47644584" lon="6.86793096"><ele>557.702148</ele><time>2009-05-17T12:16:31Z</time></trkpt>
<trkpt lat="46.47666159" lon="6.86774078"><ele>561.06665</ele><time>2009-05-17T12:16:42Z</time></trkpt>
<trkpt lat="46.47681272" lon="6.86764958"><ele>562.028076</ele><time>2009-05-17T12:16:49Z</time></trkpt>
<trkpt lat="46.47709494" lon="6.86761639"><ele>565.873291</ele><time>2009-05-17T12:17:01Z</time></trkpt>
<trkpt lat="46.47724296" lon="6.86769937"><ele>567.315186</ele><time>2009-05-17T12:17:07Z</time></trkpt>
<trkpt lat="46.47771553" lon="6.86799433"><ele>571.1604</ele><time>2009-05-17T12:17:26Z</time></trkpt>
<trkpt lat="46.47774093" lon="6.86800975"><ele>571.1604</ele><time>2009-05-17T12:17:27Z</time></trkpt>
<trkpt lat="46.47800513" lon="6.86816599"><ele>574.044434</ele><time>2009-05-17T12:17:38Z</time></trkpt>
<trkpt lat="46.47827863" lon="6.86832625"><ele>576.928467</ele><time>2009-05-17T12:17:50Z</time></trkpt>
<trkpt lat="46.47841576" lon="6.86860546"><ele>579.812256</ele><time>2009-05-17T12:18:00Z</time></trkpt>
<trkpt lat="46.47838734" lon="6.86890452"><ele>583.657471</ele><time>2009-05-17T12:18:09Z</time></trkpt>
<trkpt lat="46.47838499" lon="6.86893537"><ele>583.657471</ele><time>2009-05-17T12:18:10Z</time></trkpt>
<trkpt lat="46.47839195" lon="6.86900443"><ele>584.138184</ele><time>2009-05-17T12:18:12Z</time></trkpt>
<trkpt lat="46.47845750" lon="6.86911348"><ele>584.138184</ele><time>2009-05-17T12:18:16Z</time></trkpt>
<trkpt lat="46.47873879" lon="6.86945253"><ele>587.983398</ele><time>2009-05-17T12:18:30Z</time></trkpt>
<trkpt lat="46.47887768" lon="6.86962386"><ele>589.90625</ele><time>2009-05-17T12:18:37Z</time></trkpt>
<trkpt lat="46.47901422" lon="6.86993575"><ele>591.348145</ele><time>2009-05-17T12:18:49Z</time></trkpt>
<trkpt lat="46.47886578" lon="6.87031369"><ele>591.828857</ele><time>2009-05-17T12:19:01Z</time></trkpt>
<trkpt lat="46.47859647" lon="6.87084334"><ele>589.90625</ele><time>2009-05-17T12:19:13Z</time></trkpt>
<trkpt lat="46.47833806" lon="6.87143854"><ele>589.90625</ele><time>2009-05-17T12:19:24Z</time></trkpt>
<trkpt lat="46.47821593" lon="6.87169419"><ele>589.90625</ele><time>2009-05-17T12:19:28Z</time></trkpt>
<trkpt lat="46.47813278" lon="6.87181950"><ele>589.425537</ele><time>2009-05-17T12:19:30Z</time></trkpt>
<trkpt lat="46.47805877" lon="6.87197439"><ele>588.464355</ele><time>2009-05-17T12:19:32Z</time></trkpt>
<trkpt lat="46.47811183" lon="6.87227958"><ele>589.425537</ele><time>2009-05-17T12:19:36Z</time></trkpt>
<trkpt lat="46.47821258" lon="6.87240070"><ele>590.867432</ele><time>2009-05-17T12:19:39Z</time></trkpt>
<trkpt lat="46.47843093" lon="6.87266959"><ele>593.751465</ele><time>2009-05-17T12:19:46Z</time></trkpt>
<trkpt lat="46.47848256" lon="6.87271326"><ele>593.751465</ele><time>2009-05-17T12:19:48Z</time></trkpt>
<trkpt lat="46.47846068" lon="6.87272055"><ele>594.232178</ele><time>2009-05-17T12:19:52Z</time></trkpt>
<trkpt lat="46.47825365" lon="6.87242417"><ele>591.828857</ele><time>2009-05-17T12:19:59Z</time></trkpt>
<trkpt lat="46.47808819" lon="6.87219995"><ele>590.386963</ele><time>2009-05-17T12:20:02Z</time></trkpt>
<trkpt lat="46.47774864" lon="6.87202502"><ele>588.464355</ele><time>2009-05-17T12:20:06Z</time></trkpt>
<trkpt lat="46.47709485" lon="6.87170634"><ele>585.099609</ele><time>2009-05-17T12:20:13Z</time></trkpt>
<trkpt lat="46.47659328" lon="6.87168312"><ele>583.176758</ele><time>2009-05-17T12:20:18Z</time></trkpt>
<trkpt lat="46.47637568" lon="6.87176342"><ele>582.215576</ele><time>2009-05-17T12:20:20Z</time></trkpt>
<trkpt lat="46.47560966" lon="6.87218403"><ele>579.812256</ele><time>2009-05-17T12:20:28Z</time></trkpt>
<trkpt lat="46.47532468" lon="6.87222602"><ele>577.889648</ele><time>2009-05-17T12:20:31Z</time></trkpt>
<trkpt lat="46.47442354" lon="6.87199057"><ele>579.812256</ele><time>2009-05-17T12:20:42Z</time></trkpt>
<trkpt lat="46.47386748" lon="6.87210758"><ele>582.215576</ele><time>2009-05-17T12:20:52Z</time></trkpt>
<trkpt lat="46.47364830" lon="6.87228218"><ele>580.773682</ele><time>2009-05-17T12:20:56Z</time></trkpt>
<trkpt lat="46.47351519" lon="6.87238142"><ele>579.812256</ele><time>2009-05-17T12:20:58Z</time></trkpt>
<trkpt lat="46.47343975" lon="6.87242945"><ele>578.370361</ele><time>2009-05-17T12:20:59Z</time></trkpt>
<trkpt lat="46.47322996" lon="6.87252852"><ele>576.447754</ele><time>2009-05-17T12:21:02Z</time></trkpt>
<trkpt lat="46.47296693" lon="6.87268795"><ele>573.083252</ele><time>2009-05-17T12:21:06Z</time></trkpt>
<trkpt lat="46.47270324" lon="6.87318927"><ele>570.198975</ele><time>2009-05-17T12:21:11Z</time></trkpt>
<trkpt lat="46.47251925" lon="6.87389687"><ele>568.75708</ele><time>2009-05-17T12:21:17Z</time></trkpt>
<trkpt lat="46.47239604" lon="6.87448712"><ele>564.911865</ele><time>2009-05-17T12:21:24Z</time></trkpt>
<trkpt lat="46.47238229" lon="6.87456423"><ele>563.950439</ele><time>2009-05-17T12:21:26Z</time></trkpt>
<trkpt lat="46.47219798" lon="6.87524484"><ele>562.508545</ele><time>2009-05-17T12:21:36Z</time></trkpt>
<trkpt lat="46.47207786" lon="6.87577995"><ele>563.950439</ele><time>2009-05-17T12:21:42Z</time></trkpt>
<trkpt lat="46.47165416" lon="6.87710060"><ele>566.834473</ele><time>2009-05-17T12:21:58Z</time></trkpt>
<trkpt lat="46.47139918" lon="6.87830784"><ele>568.276367</ele><time>2009-05-17T12:22:13Z</time></trkpt>
<trkpt lat="46.47107044" lon="6.87930588"><ele>571.1604</ele><time>2009-05-17T12:22:27Z</time></trkpt>
<trkpt lat="46.47076987" lon="6.88034297"><ele>574.044434</ele><time>2009-05-17T12:22:45Z</time></trkpt>
<trkpt lat="46.47075067" lon="6.88063583"><ele>572.121826</ele><time>2009-05-17T12:22:55Z</time></trkpt>
<trkpt lat="46.47074606" lon="6.88063625"><ele>577.40918</ele><time>2009-05-17T12:22:56Z</time></trkpt>
<trkpt lat="46.47074129" lon="6.88062695"><ele>575.486328</ele><time>2009-05-17T12:23:23Z</time></trkpt>
</trkseg></trk></gpx>